Observation data for Goodnight on 05/23/2019      Previous  Date  Next       Current Mesonet Observations  Soil Data  Daily Summary Page  Observations in Plain Language
KGO1 230500Z 15008KT 19/10 A2984 RMK A01 T01890102  RH  057%=      5-min Rain = 0
KGO1 230501Z 15008KT 19/10 A2984 RMK A01 T01880101  RH  057%=      5-min Rain = 0
KGO1 230502Z 15009KT 19/10 A2984 RMK A01 T01880102  RH  057%=      5-min Rain = 0
KGO1 230503Z 14010KT 19/10 A2984 RMK A01 T01880102  RH  057%=      5-min Rain = 0
KGO1 230504Z 14009KT 19/10 A2984 RMK A01 T01880102  RH  057%=      5-min Rain = 0
KGO1 230505Z 15009KT 19/10 A2984 RMK A01 T01890102  RH  057%=      5-min Rain = 0
KGO1 230506Z 15009KT 19/10 A2984 RMK A01 T01890103  RH  057%=      5-min Rain = 0
KGO1 230507Z 15009KT 19/10 A2984 RMK A01 T01900103  RH  057%=      5-min Rain = 0
KGO1 230508Z 15009KT 19/10 A2984 RMK A01 T01910103  RH  057%=      5-min Rain = 0
KGO1 230509Z 15009KT 19/10 A2984 RMK A01 T01910104  RH  057%=      5-min Rain = 0
KGO1 230510Z 15009KT 19/10 A2984 RMK A01 T01910104  RH  057%=      5-min Rain = 0
KGO1 230511Z 15009KT 19/10 A2984 RMK A01 T01920104  RH  057%=      5-min Rain = 0
KGO1 230512Z 15008KT 19/10 A2984 RMK A01 T01920104  RH  057%=      5-min Rain = 0
KGO1 230513Z 15008KT 19/11 A2984 RMK A01 T01920105  RH  057%=      5-min Rain = 0
KGO1 230514Z 15008KT 19/11 A2984 RMK A01 T01910105  RH  058%=      5-min Rain = 0
KGO1 230515Z 15009KT 19/11 A2984 RMK A01 T01910105  RH  058%=      5-min Rain = 0
KGO1 230516Z 15009KT 19/11 A2984 RMK A01 T01910106  RH  058%=      5-min Rain = 0
KGO1 230517Z 15009KT 19/11 A2984 RMK A01 T01910106  RH  058%=      5-min Rain = 0
KGO1 230518Z 15009KT 19/11 A2984 RMK A01 T01920107  RH  058%=      5-min Rain = 0
KGO1 230519Z 15009KT 19/11 A2984 RMK A01 T01920107  RH  058%=      5-min Rain = 0
KGO1 230520Z 15010KT 19/11 A2984 RMK A01 T01930108  RH  058%=      5-min Rain = 0
KGO1 230521Z 16010KT 19/11 A2984 RMK A01 T01940109  RH  058%=      5-min Rain = 0
KGO1 230522Z 16011KT 20/11 A2984 RMK A01 T01950110  RH  058%=      5-min Rain = 0
KGO1 230523Z 16011KT 20/11 A2984 RMK A01 T01960111  RH  058%=      5-min Rain = 0
KGO1 230524Z 16011KT 20/11 A2984 RMK A01 T01970112  RH  058%=      5-min Rain = 0
KGO1 230525Z 15011KT 20/11 A2984 RMK A01 T01980113  RH  058%=      5-min Rain = 0
KGO1 230526Z 15011KT 20/11 A2984 RMK A01 T01980113  RH  058%=      5-min Rain = 0
KGO1 230527Z 15010KT 20/11 A2984 RMK A01 T01980114  RH  058%=      5-min Rain = 0
KGO1 230528Z 16011KT 20/12 A2984 RMK A01 T01970115  RH  059%=      5-min Rain = 0
KGO1 230529Z 16010KT 20/12 A2984 RMK A01 T01970116  RH  060%=      5-min Rain = 0
KGO1 230530Z 16010KT 20/12 A2984 RMK A01 T01960117  RH  060%=      5-min Rain = 0
KGO1 230531Z 16011KT 20/12 A2984 RMK A01 T01960117  RH  060%=      5-min Rain = 0
KGO1 230532Z 16011KT 20/12 A2984 RMK A01 T01960120  RH  061%=      5-min Rain = 0
KGO1 230533Z 16011KT 20/12 A2984 RMK A01 T01970121  RH  061%=      5-min Rain = 0
KGO1 230534Z 16010KT 20/12 A2984 RMK A01 T01980122  RH  061%=      5-min Rain = 0
KGO1 230535Z 16011KT 20/12 A2984 RMK A01 T01980123  RH  062%=      5-min Rain = 0
KGO1 230536Z 16011KT 20/12 A2984 RMK A01 T01980123  RH  062%=      5-min Rain = 0
KGO1 230537Z 16011KT 20/12 A2984 RMK A01 T01980124  RH  062%=      5-min Rain = 0
KGO1 230538Z 16011KT 20/13 A2984 RMK A01 T01980125  RH  063%=      5-min Rain = 0
KGO1 230539Z 16010KT 20/13 A2984 RMK A01 T01970125  RH  063%=      5-min Rain = 0
KGO1 230540Z 16011KT 20/13 A2984 RMK A01 T01960126  RH  064%=      5-min Rain = 0
KGO1 230541Z 16012KT 20/13 A2984 RMK A01 T01960129  RH  065%=      5-min Rain = 0
KGO1 230542Z 16012KT 20/13 A2984 RMK A01 T01960131  RH  066%=      5-min Rain = 0
KGO1 230543Z 16012KT 20/13 A2984 RMK A01 T01970133  RH  067%=      5-min Rain = 0
KGO1 230544Z 16012KT 20/13 A2984 RMK A01 T01970134  RH  067%=      5-min Rain = 0
KGO1 230545Z 16011KT 20/14 A2984 RMK A01 T01970136  RH  068%=      5-min Rain = 0
KGO1 230546Z 15012KT 20/14 A2984 RMK A01 T01980139  RH  069%=      5-min Rain = 0
KGO1 230547Z 16012KT 20/14 A2984 RMK A01 T01980140  RH  069%=      5-min Rain = 0
KGO1 230548Z 16012KT 20/14 A2984 RMK A01 T01980142  RH  070%=      5-min Rain = 0
KGO1 230549Z 15012KT 20/14 A2984 RMK A01 T01980143  RH  070%=      5-min Rain = 0
KGO1 230550Z 16011KT 20/14 A2984 RMK A01 T01990144  RH  071%=      5-min Rain = 0
KGO1 230551Z 16012KT 20/14 A2984 RMK A01 T01980144  RH  071%=      5-min Rain = 0
KGO1 230552Z 15011KT 20/15 A2984 RMK A01 T01980146  RH  072%=      5-min Rain = 0
KGO1 230553Z 15011KT 20/15 A2984 RMK A01 T01980147  RH  073%=      5-min Rain = 0
KGO1 230554Z 16012KT 20/15 A2984 RMK A01 T01980149  RH  073%=      5-min Rain = 0
KGO1 230555Z 16012KT 20/15 A2984 RMK A01 T01990151  RH  074%=      5-min Rain = 0
KGO1 230556Z 15012KT 20/15 A2984 RMK A01 T01990151  RH  074%=      5-min Rain = 0
KGO1 230557Z 16011KT 20/15 A2984 RMK A01 T01990152  RH  074%=      5-min Rain = 0
KGO1 230558Z 15014KT 20/15 A2984 RMK A01 T01990153  RH  075%=      5-min Rain = 0
KGO1 230559Z 16013KT 20/16 A2984 RMK A01 T01990155  RH  076%=      5-min Rain = 0
KGO1 230600Z 16013KT 20/16 A2984 RMK A01 T01990156  RH  076%=      5-min Rain = 0
KGO1 230601Z 15012KT 20/16 A2984 RMK A01 T02000156  RH  076%=      5-min Rain = 0
KGO1 230602Z 16012KT 20/16 A2984 RMK A01 T02000156  RH  076%=      5-min Rain = 0
KGO1 230603Z 15013KT 20/16 A2984 RMK A01 T01990157  RH  077%=      5-min Rain = 0
KGO1 230604Z 16012KT 20/16 A2984 RMK A01 T01990159  RH  077%=      5-min Rain = 0
KGO1 230605Z 15012KT 20/16 A2984 RMK A01 T01990159  RH  077%=      5-min Rain = 0
KGO1 230606Z 16012KT 20/16 A2984 RMK A01 T01990159  RH  078%=      5-min Rain = 0
KGO1 230607Z 16013KT 20/16 A2984 RMK A01 T01990160  RH  078%=      5-min Rain = 0
KGO1 230608Z 16014KT 20/16 A2984 RMK A01 T01990160  RH  078%=      5-min Rain = 0
KGO1 230609Z 16012KT 20/16 A2984 RMK A01 T02000161  RH  078%=      5-min Rain = 0
KGO1 230610Z 16012KT 20/16 A2984 RMK A01 T02000161  RH  078%=      5-min Rain = 0
KGO1 230611Z 16013KT 20/16 A2984 RMK A01 T02000162  RH  079%=      5-min Rain = 0
KGO1 230612Z 16013KT 20/16 A2984 RMK A01 T02000163  RH  079%=      5-min Rain = 0
KGO1 230613Z 16013KT 20/16 A2984 RMK A01 T02000164  RH  080%=      5-min Rain = 0
KGO1 230614Z 16013KT 20/16 A2984 RMK A01 T02000164  RH  080%=      5-min Rain = 0
KGO1 230615Z 16012KT 20/17 A2985 RMK A01 T02000165  RH  080%=      5-min Rain = 0
KGO1 230616Z 15014KT 20/17 A2985 RMK A01 T02000166  RH  081%=      5-min Rain = 0
KGO1 230617Z 16015KT 20/17 A2985 RMK A01 T02000167  RH  081%=      5-min Rain = 0
KGO1 230618Z 16013KT 20/17 A2985 RMK A01 T02010168  RH  082%=      5-min Rain = 0
KGO1 230619Z 16014KT 20/17 A2984 RMK A01 T02010168  RH  081%=      5-min Rain = 0
KGO1 230620Z 16013KT 20/17 A2985 RMK A01 T02010169  RH  082%=      5-min Rain = 0
KGO1 230621Z 16013KT 20/17 A2985 RMK A01 T02010169  RH  082%=      5-min Rain = 0
KGO1 230622Z 16013KT 20/17 A2985 RMK A01 T02010170  RH  082%=      5-min Rain = 0
KGO1 230623Z 16013KT 20/17 A2985 RMK A01 T02010170  RH  083%=      5-min Rain = 0
KGO1 230624Z 16014KT 20/17 A2985 RMK A01 T02010171  RH  083%=      5-min Rain = 0
KGO1 230625Z 16013KT 20/17 A2985 RMK A01 T02010171  RH  083%=      5-min Rain = 0
KGO1 230626Z 16015KT 20/17 A2985 RMK A01 T02010171  RH  083%=      5-min Rain = 0
KGO1 230627Z 15013KT 20/17 A2985 RMK A01 T02010172  RH  083%=      5-min Rain = 0
KGO1 230628Z 16013KT 20/17 A2985 RMK A01 T02010172  RH  084%=      5-min Rain = 0
KGO1 230629Z 16013KT 20/17 A2985 RMK A01 T02000172  RH  084%=      5-min Rain = 0
KGO1 230630Z 16013KT 20/17 A2985 RMK A01 T02000173  RH  084%=      5-min Rain = 0
KGO1 230631Z 16013KT 20/18 A2985 RMK A01 T02010175  RH  085%=      5-min Rain = 0
KGO1 230632Z 16013KT 20/17 A2985 RMK A01 T02000174  RH  085%=      5-min Rain = 0
KGO1 230633Z 16014KT 20/17 A2985 RMK A01 T02000174  RH  085%=      5-min Rain = 0
KGO1 230634Z 16015KT 20/18 A2985 RMK A01 T02000175  RH  086%=      5-min Rain = 0
KGO1 230635Z 16013KT 20/18 A2985 RMK A01 T02000176  RH  086%=      5-min Rain = 0
KGO1 230636Z 16013KT 20/18 A2985 RMK A01 T02000176  RH  086%=      5-min Rain = 0
KGO1 230637Z 16012KT 20/18 A2985 RMK A01 T02000176  RH  086%=      5-min Rain = 0
KGO1 230638Z 16013KT 20/18 A2985 RMK A01 T02000177  RH  086%=      5-min Rain = 0
KGO1 230639Z 16013KT 20/18 A2985 RMK A01 T02010177  RH  086%=      5-min Rain = 0
KGO1 230640Z 16013KT 20/18 A2985 RMK A01 T02010178  RH  086%=      5-min Rain = 0
KGO1 230641Z 16012KT 20/18 A2985 RMK A01 T02010178  RH  086%=      5-min Rain = 0
KGO1 230642Z 16013KT 20/18 A2985 RMK A01 T02010179  RH  087%=      5-min Rain = 0
KGO1 230643Z 16012KT 20/18 A2985 RMK A01 T02010179  RH  087%=      5-min Rain = 0
KGO1 230644Z 16013KT 20/18 A2985 RMK A01 T02010179  RH  087%=      5-min Rain = 0
KGO1 230645Z 16012KT 20/18 A2985 RMK A01 T02010180  RH  088%=      5-min Rain = 0
KGO1 230646Z 16013KT 20/18 A2985 RMK A01 T02010180  RH  088%=      5-min Rain = 0
KGO1 230647Z 16014KT 20/18 A2985 RMK A01 T02010181  RH  088%=      5-min Rain = 0
KGO1 230648Z 16013KT 20/18 A2985 RMK A01 T02010181  RH  088%=      5-min Rain = 0
KGO1 230649Z 16013KT 20/18 A2985 RMK A01 T02010182  RH  089%=      5-min Rain = 0
KGO1 230650Z 16014KT 20/18 A2985 RMK A01 T02010182  RH  089%=      5-min Rain = 0
KGO1 230651Z 16015KT 20/18 A2985 RMK A01 T02010182  RH  089%=      5-min Rain = 0
KGO1 230652Z 16014KT 20/18 A2985 RMK A01 T02010182  RH  089%=      5-min Rain = 0
KGO1 230653Z 16013KT 20/18 A2985 RMK A01 T02010183  RH  089%=      5-min Rain = 0
KGO1 230654Z 16012KT 20/18 A2985 RMK A01 T02010183  RH  090%=      5-min Rain = 0
KGO1 230655Z 16013KT 20/18 A2985 RMK A01 T02010183  RH  090%=      5-min Rain = 0
KGO1 230656Z 16013KT 20/18 A2985 RMK A01 T02010183  RH  090%=      5-min Rain = 0
KGO1 230657Z 16012KT 20/18 A2985 RMK A01 T02000183  RH  090%=      5-min Rain = 0
KGO1 230658Z 16012KT 20/18 A2985 RMK A01 T02000184  RH  090%=      5-min Rain = 0
KGO1 230659Z 16012KT 20/19 A2985 RMK A01 T02000185  RH  091%=      5-min Rain = 0
KGO1 230700Z 16013KT 20/19 A2985 RMK A01 T01990185  RH  091%=      5-min Rain = 0
KGO1 230701Z 16012KT 20/19 A2985 RMK A01 T01990185  RH  092%=      5-min Rain = 0
KGO1 230702Z 16013KT 20/19 A2986 RMK A01 T01990186  RH  092%=      5-min Rain = 0
KGO1 230703Z 16013KT 20/19 A2986 RMK A01 T02000187  RH  092%=      5-min Rain = 0
KGO1 230704Z 16012KT 20/19 A2986 RMK A01 T02000186  RH  092%=      5-min Rain = 0
KGO1 230705Z 16013KT 20/19 A2986 RMK A01 T02000187  RH  092%=      5-min Rain = 0
KGO1 230706Z 16012KT 20/19 A2986 RMK A01 T02000187  RH  092%=      5-min Rain = 0
KGO1 230707Z 16013KT 20/19 A2986 RMK A01 T02000188  RH  093%=      5-min Rain = 0
KGO1 230708Z 16014KT 20/19 A2986 RMK A01 T02000189  RH  093%=      5-min Rain = 0
KGO1 230709Z 15013KT 20/19 A2986 RMK A01 T02010190  RH  093%=      5-min Rain = 0
KGO1 230710Z 16011KT 20/19 A2986 RMK A01 T02010189  RH  093%=      5-min Rain = 0
KGO1 230711Z 16014KT 20/19 A2986 RMK A01 T02010190  RH  093%=      5-min Rain = 0
KGO1 230712Z 16013KT 20/19 A2986 RMK A01 T02010191  RH  093%=      5-min Rain = 0
KGO1 230713Z 16013KT 20/19 A2986 RMK A01 T02010190  RH  093%=      5-min Rain = 0
KGO1 230714Z 16014KT 20/19 A2986 RMK A01 T02020191  RH  094%=      5-min Rain = 0
KGO1 230715Z 15014KT 20/19 A2986 RMK A01 T02020191  RH  093%=      5-min Rain = 0
KGO1 230716Z 15013KT 20/19 A2986 RMK A01 T02020191  RH  094%=      5-min Rain = 0
KGO1 230717Z 15013KT 20/19 A2986 RMK A01 T02020191  RH  094%=      5-min Rain = 0
KGO1 230718Z 16012KT 20/19 A2986 RMK A01 T02020192  RH  094%=      5-min Rain = 0
KGO1 230719Z 15013KT 20/19 A2986 RMK A01 T02010192  RH  094%=      5-min Rain = 0
KGO1 230720Z 16012KT 20/19 A2986 RMK A01 T02010192  RH  095%=      5-min Rain = 0
KGO1 230721Z 16013KT 20/19 A2986 RMK A01 T02010193  RH  095%=      5-min Rain = 0
KGO1 230722Z 16015KT 20/19 A2986 RMK A01 T02010194  RH  095%=      5-min Rain = 0
KGO1 230723Z 16015KT 20/19 A2986 RMK A01 T02010194  RH  096%=      5-min Rain = 0
KGO1 230724Z 15013KT 20/19 A2986 RMK A01 T02020194  RH  095%=      5-min Rain = 0
KGO1 230725Z 16012KT 20/19 A2986 RMK A01 T02020194  RH  095%=      5-min Rain = 0
KGO1 230726Z 16014KT 20/19 A2986 RMK A01 T02020194  RH  095%=      5-min Rain = 0
KGO1 230727Z 16016KT 20/20 A2986 RMK A01 T02020195  RH  095%=      5-min Rain = 0
KGO1 230728Z 16015G20KT 20/20 A2986 RMK A01 T02030195  RH  096%=      5-min Rain = 0
KGO1 230729Z 15013KT 20/20 A2986 RMK A01 T02030195  RH  095%=      5-min Rain = 0
KGO1 230730Z 16014KT 20/20 A2986 RMK A01 T02030195  RH  095%=      5-min Rain = 0
KGO1 230731Z 16013KT 20/20 A2986 RMK A01 T02030195  RH  095%=      5-min Rain = 0
KGO1 230732Z 16013KT 20/20 A2986 RMK A01 T02020195  RH  095%=      5-min Rain = 0
KGO1 230733Z 16013KT 20/19 A2986 RMK A01 T02020194  RH  095%=      5-min Rain = 0
KGO1 230734Z 16013KT 20/20 A2986 RMK A01 T02020195  RH  096%=      5-min Rain = 0
KGO1 230735Z 16013KT 20/20 A2986 RMK A01 T02020195  RH  096%=      5-min Rain = 0
KGO1 230736Z 16014KT 20/20 A2986 RMK A01 T02010195  RH  096%=      5-min Rain = 0
KGO1 230737Z 16013KT 20/20 A2986 RMK A01 T02010195  RH  097%=      5-min Rain = 0
KGO1 230738Z 16014KT 20/20 A2986 RMK A01 T02010196  RH  097%=      5-min Rain = 0
KGO1 230739Z 16013KT 20/20 A2986 RMK A01 T02010196  RH  096%=      5-min Rain = 0
KGO1 230740Z 16014KT 20/20 A2987 RMK A01 T02010196  RH  097%=      5-min Rain = 0
KGO1 230741Z 16014KT 20/20 A2987 RMK A01 T02010197  RH  097%=      5-min Rain = 0
KGO1 230742Z 16014KT 20/20 A2987 RMK A01 T02010197  RH  098%=      5-min Rain = 0
KGO1 230743Z 16012KT 20/20 A2987 RMK A01 T02010197  RH  098%=      5-min Rain = 0
KGO1 230744Z 16015KT 20/20 A2987 RMK A01 T02010198  RH  098%=      5-min Rain = 0
KGO1 230745Z 16012KT 20/20 A2987 RMK A01 T02010197  RH  098%=      5-min Rain = 0
KGO1 230746Z 16012KT 20/20 A2987 RMK A01 T02010197  RH  097%=      5-min Rain = 0
KGO1 230747Z 16014KT 20/20 A2987 RMK A01 T02000197  RH  098%=      5-min Rain = 0
KGO1 230748Z 16012KT 20/20 A2987 RMK A01 T02000197  RH  098%=      5-min Rain = 0
KGO1 230749Z 16014KT 20/20 A2987 RMK A01 T02000197  RH  098%=      5-min Rain = 0
KGO1 230750Z 16013KT 20/20 A2987 RMK A01 T02000198  RH  098%=      5-min Rain = 0
KGO1 230756Z 16013KT 20/20 A2987 RMK A01 T02000198  RH  099%=      5-min Rain = 0
KGO1 230757Z 16015KT 20/20 A2987 RMK A01 T02000199  RH  100%=      5-min Rain = 0
KGO1 230758Z 16015KT 20/20 A2987 RMK A01 T02000200  RH  100%=      5-min Rain = 0
KGO1 230759Z 16014KT 20/20 A2987 RMK A01 T02010201  RH  100%=      5-min Rain = 0
KGO1 230800Z 16013KT 20/20 A2987 RMK A01 T02010200  RH  099%=      5-min Rain = 0
KGO1 230801Z 16012KT 20/20 A2987 RMK A01 T02010200  RH  099%=      5-min Rain = 0
KGO1 230802Z 16014KT 20/20 A2987 RMK A01 T02010200  RH  100%=      5-min Rain = 0
KGO1 230803Z 16013KT 20/20 A2987 RMK A01 T02010201  RH  100%=      5-min Rain = 0
KGO1 230804Z 16014KT 20/20 A2987 RMK A01 T02010200  RH  100%=      5-min Rain = 0
KGO1 230805Z 16014KT 20/20 A2987 RMK A01 T02010201  RH  100%=      5-min Rain = 0
KGO1 230806Z 16014KT 20/20 A2987 RMK A01 T02010201  RH  100%=      5-min Rain = 0
KGO1 230807Z 16014KT 20/20 A2987 RMK A01 T02010201  RH  100%=      5-min Rain = 0
KGO1 230808Z 16014KT 20/20 A2987 RMK A01 T02010201  RH  100%=      5-min Rain = 0
KGO1 230809Z 16013KT 20/20 A2987 RMK A01 T02010201  RH  100%=      5-min Rain = 0
KGO1 230810Z 16013KT 20/20 A2987 RMK A01 T02010201  RH  100%=      5-min Rain = 0
KGO1 230811Z 16014KT 20/20 A2987 RMK A01 T02010201  RH  100%=      5-min Rain = 0
KGO1 230812Z 16013KT 20/20 A2987 RMK A01 T02010201  RH  100%=      5-min Rain = 0
KGO1 230813Z 16013KT 20/20 A2987 RMK A01 T02010201  RH  100%=      5-min Rain = 0
KGO1 230814Z 16012KT 20/20 A2987 RMK A01 T02010201  RH  100%=      5-min Rain = 0
KGO1 230815Z 16014KT 20/20 A2987 RMK A01 T02000200  RH  100%=      5-min Rain = 0
KGO1 230816Z 16014KT 20/20 A2987 RMK A01 T02010201  RH  100%=      5-min Rain = 0
KGO1 230817Z 16013KT 20/20 A2987 RMK A01 T02010201  RH  100%=      5-min Rain = 0
KGO1 230818Z 16013KT 20/20 A2987 RMK A01 T02010201  RH  100%=      5-min Rain = 0
KGO1 230819Z 16014KT 20/20 A2987 RMK A01 T02010201  RH  100%=      5-min Rain = 0
KGO1 230820Z 16014KT 20/20 A2987 RMK A01 T02020202  RH  100%=      5-min Rain = 0
KGO1 230821Z 16013KT 20/20 A2987 RMK A01 T02010202  RH  100%=      5-min Rain = 0
KGO1 230822Z 16015KT 20/20 A2987 RMK A01 T02020202  RH  100%=      5-min Rain = 0
KGO1 230823Z 16014KT 20/20 A2987 RMK A01 T02020202  RH  100%=      5-min Rain = 0
KGO1 230824Z 16012KT 20/20 A2987 RMK A01 T02020202  RH  100%=      5-min Rain = 0
KGO1 230825Z 16015KT 20/20 A2987 RMK A01 T02020202  RH  100%=      5-min Rain = 0
KGO1 230826Z 16014KT 20/20 A2987 RMK A01 T02020202  RH  100%=      5-min Rain = 0
KGO1 230827Z 16013KT 20/20 A2987 RMK A01 T02020202  RH  100%=      5-min Rain = 0
KGO1 230828Z 16013KT 20/20 A2987 RMK A01 T02020202  RH  100%=      5-min Rain = 0
KGO1 230829Z 16012KT 20/20 A2987 RMK A01 T02020202  RH  100%=      5-min Rain = 0
KGO1 230830Z 16011KT 20/20 A2987 RMK A01 T02020202  RH  100%=      5-min Rain = 0
KGO1 230831Z 16015KT 20/20 A2987 RMK A01 T02020203  RH  100%=      5-min Rain = 0
KGO1 230832Z 16014KT 20/20 A2987 RMK A01 T02020202  RH  100%=      5-min Rain = 0
KGO1 230833Z 16015KT 20/20 A2987 RMK A01 T02030203  RH  100%=      5-min Rain = 0
KGO1 230834Z 16014KT 20/20 A2987 RMK A01 T02020203  RH  100%=      5-min Rain = 0
KGO1 230835Z 16015KT 20/20 A2987 RMK A01 T02030203  RH  100%=      5-min Rain = 0
KGO1 230836Z 16015KT 20/20 A2987 RMK A01 T02030203  RH  100%=      5-min Rain = 0
KGO1 230837Z 16014KT 20/20 A2987 RMK A01 T02030203  RH  100%=      5-min Rain = 0
KGO1 230838Z 16015KT 20/20 A2987 RMK A01 T02030203  RH  100%=      5-min Rain = 0
KGO1 230839Z 16014KT 20/20 A2987 RMK A01 T02030203  RH  100%=      5-min Rain = 0
KGO1 230840Z 16013KT 20/20 A2987 RMK A01 T02030203  RH  100%=      5-min Rain = 0
KGO1 230841Z 16015KT 20/20 A2987 RMK A01 T02040204  RH  100%=      5-min Rain = 0
KGO1 230842Z 16015KT 20/20 A2987 RMK A01 T02030204  RH  100%=      5-min Rain = 0
KGO1 230843Z 16015KT 20/20 A2987 RMK A01 T02040204  RH  100%=      5-min Rain = 0
KGO1 230844Z 16014KT 20/20 A2987 RMK A01 T02040204  RH  100%=      5-min Rain = 0
KGO1 230845Z 16012KT 20/20 A2987 RMK A01 T02040204  RH  100%=      5-min Rain = 0
KGO1 230846Z 16012KT 20/20 A2987 RMK A01 T02040204  RH  100%=      5-min Rain = 0
KGO1 230847Z 16014KT 20/20 A2987 RMK A01 T02040204  RH  100%=      5-min Rain = 0
KGO1 230848Z 16013KT 20/20 A2987 RMK A01 T02030204  RH  100%=      5-min Rain = 0
KGO1 230849Z 16014KT 20/20 A2987 RMK A01 T02040204  RH  100%=      5-min Rain = 0
KGO1 230850Z 16013KT 20/20 A2987 RMK A01 T02030204  RH  100%=      5-min Rain = 0
KGO1 230851Z 16014KT 20/20 A2987 RMK A01 T02030204  RH  100%=      5-min Rain = 0
KGO1 230852Z 16014KT 20/20 A2987 RMK A01 T02040204  RH  100%=      5-min Rain = 0
KGO1 230853Z 16015KT 20/20 A2987 RMK A01 T02040204  RH  100%=      5-min Rain = 0
KGO1 230854Z 16015KT 20/20 A2987 RMK A01 T02040204  RH  100%=      5-min Rain = 0
KGO1 230855Z 16013KT 20/20 A2987 RMK A01 T02040204  RH  100%=      5-min Rain = 0
KGO1 230856Z 16014KT 20/20 A2987 RMK A01 T02040204  RH  100%=      5-min Rain = 0
KGO1 230857Z 16014KT 20/20 A2987 RMK A01 T02040204  RH  100%=      5-min Rain = 0
KGO1 230858Z 16014KT 20/20 A2987 RMK A01 T02040204  RH  100%=      5-min Rain = 0
KGO1 230859Z 16013KT 20/21 A2987 RMK A01 T02040205  RH  100%=      5-min Rain = 0
KGO1 230900Z 16013KT 21/21 A2987 RMK A01 T02050205  RH  100%=      5-min Rain = 0
KGO1 230901Z 16015KT 20/21 A2987 RMK A01 T02040205  RH  100%=      5-min Rain = 0
KGO1 230902Z 16013KT 21/21 A2987 RMK A01 T02050205  RH  100%=      5-min Rain = 0
KGO1 230903Z 16013KT 20/21 A2987 RMK A01 T02040205  RH  100%=      5-min Rain = 0
KGO1 230904Z 16013KT 20/20 A2987 RMK A01 T02040204  RH  100%=      5-min Rain = 0
KGO1 230905Z 16013KT 20/21 A2987 RMK A01 T02040205  RH  100%=      5-min Rain = 0
KGO1 230906Z 16014KT 20/20 A2987 RMK A01 T02040204  RH  100%=      5-min Rain = 0
KGO1 230907Z 16014KT 20/21 A2987 RMK A01 T02040205  RH  100%=      5-min Rain = 0
KGO1 230908Z 16013KT 20/20 A2987 RMK A01 T02040204  RH  100%=      5-min Rain = 0
KGO1 230909Z 16013KT 20/21 A2987 RMK A01 T02040205  RH  100%=      5-min Rain = 0
KGO1 230910Z 16014KT 21/21 A2987 RMK A01 T02050205  RH  100%=      5-min Rain = 0
KGO1 230911Z 16015KT 21/21 A2987 RMK A01 T02050205  RH  100%=      5-min Rain = 0
KGO1 230912Z 16013KT 21/21 A2987 RMK A01 T02050205  RH  100%=      5-min Rain = 0
KGO1 230913Z 16013KT 20/21 A2987 RMK A01 T02040205  RH  100%=      5-min Rain = 0
KGO1 230914Z 16014KT 21/21 A2987 RMK A01 T02050205  RH  100%=      5-min Rain = 0
KGO1 230915Z 16011KT 20/20 A2987 RMK A01 T02040204  RH  100%=      5-min Rain = 0
KGO1 230916Z 16013KT 20/21 A2987 RMK A01 T02040205  RH  100%=      5-min Rain = 0
KGO1 230917Z 16013KT 21/21 A2987 RMK A01 T02050205  RH  100%=      5-min Rain = 0
KGO1 230918Z 16013KT 21/21 A2987 RMK A01 T02050205  RH  100%=      5-min Rain = 0
KGO1 230919Z 15013KT 20/21 A2987 RMK A01 T02040205  RH  100%=      5-min Rain = 0
KGO1 230920Z 16012KT 20/21 A2987 RMK A01 T02040205  RH  100%=      5-min Rain = 0
KGO1 230921Z 16013KT 20/21 A2987 RMK A01 T02040205  RH  100%=      5-min Rain = 0
KGO1 230922Z 16013KT 20/20 A2987 RMK A01 T02040204  RH  100%=      5-min Rain = 0
KGO1 230923Z 16013KT 20/21 A2987 RMK A01 T02040205  RH  100%=      5-min Rain = 0
KGO1 230924Z 16012KT 20/20 A2987 RMK A01 T02040204  RH  100%=      5-min Rain = 0
KGO1 230925Z 16013KT 20/20 A2987 RMK A01 T02040204  RH  100%=      5-min Rain = 0
KGO1 230926Z 16014KT 20/21 A2988 RMK A01 T02040205  RH  100%=      5-min Rain = 0
KGO1 230927Z 16014KT 21/21 A2988 RMK A01 T02050205  RH  100%=      5-min Rain = 0
KGO1 230928Z 16014KT 20/21 A2988 RMK A01 T02040205  RH  100%=      5-min Rain = 0
KGO1 230929Z 16014KT 21/21 A2988 RMK A01 T02050205  RH  100%=      5-min Rain = 0
KGO1 230930Z 16014KT 21/21 A2988 RMK A01 T02050205  RH  100%=      5-min Rain = 0
KGO1 230931Z 17014KT 20/20 A2988 RMK A01 T02040204  RH  100%=      5-min Rain = 0
KGO1 230932Z 16014KT 20/21 A2988 RMK A01 T02040205  RH  100%=      5-min Rain = 0
KGO1 230933Z 16013KT 21/21 A2988 RMK A01 T02050205  RH  100%=      5-min Rain = 0
KGO1 230934Z 17015KT 21/21 A2988 RMK A01 T02050205  RH  100%=      5-min Rain = 0
KGO1 230935Z 16014KT 20/21 A2988 RMK A01 T02040205  RH  100%=      5-min Rain = 0
KGO1 230936Z 16013KT 20/20 A2988 RMK A01 T02040204  RH  100%=      5-min Rain = 0
KGO1 230937Z 16013KT 20/21 A2988 RMK A01 T02040205  RH  100%=      5-min Rain = 0
KGO1 230938Z 16015KT 20/20 A2988 RMK A01 T02040204  RH  100%=      5-min Rain = 0
KGO1 230939Z 16014KT 20/20 A2988 RMK A01 T02040204  RH  100%=      5-min Rain = 0
KGO1 230940Z 17015KT 20/20 A2988 RMK A01 T02040204  RH  100%=      5-min Rain = 0
KGO1 230941Z 17015KT 20/20 A2988 RMK A01 T02040204  RH  100%=      5-min Rain = 0
KGO1 230942Z 16013KT 20/20 A2989 RMK A01 T02040204  RH  100%=      5-min Rain = 0
KGO1 230943Z 16013KT 20/20 A2989 RMK A01 T02040204  RH  100%=      5-min Rain = 0
KGO1 230944Z 16014KT 20/20 A2989 RMK A01 T02040204  RH  100%=      5-min Rain = 0
KGO1 230945Z 16013KT 20/20 A2989 RMK A01 T02040204  RH  100%=      5-min Rain = 0
KGO1 230946Z 16012KT 20/20 A2989 RMK A01 T02040204  RH  100%=      5-min Rain = 0
KGO1 230947Z 16013KT 20/20 A2989 RMK A01 T02040204  RH  100%=      5-min Rain = 0
KGO1 230948Z 16013KT 20/20 A2989 RMK A01 T02040204  RH  100%=      5-min Rain = 0
KGO1 230949Z 17012G17KT 20/20 A2989 RMK A01 T02040204  RH  100%=      5-min Rain = 0
KGO1 230950Z 16014KT 20/20 A2989 RMK A01 T02040204  RH  100%=      5-min Rain = 0
KGO1 230951Z 16013KT 20/21 A2989 RMK A01 T02040205  RH  100%=      5-min Rain = 0
KGO1 230952Z 16012KT 20/20 A2989 RMK A01 T02040204  RH  100%=      5-min Rain = 0
KGO1 230953Z 17014KT 20/20 A2989 RMK A01 T02040204  RH  100%=      5-min Rain = 0
KGO1 230954Z 17013KT 20/20 A2989 RMK A01 T02040204  RH  100%=      5-min Rain = 0
KGO1 230955Z 17012KT 20/20 A2989 RMK A01 T02040204  RH  100%=      5-min Rain = 0
KGO1 230956Z 16014KT 20/20 A2989 RMK A01 T02040204  RH  100%=      5-min Rain = 0
KGO1 230957Z 17013KT 20/20 A2989 RMK A01 T02040204  RH  100%=      5-min Rain = 0
KGO1 230958Z 16011KT 20/20 A2989 RMK A01 T02030204  RH  100%=      5-min Rain = 0
KGO1 230959Z 17010KT 20/20 A2989 RMK A01 T02040204  RH  100%=      5-min Rain = 0
KGO1 231000Z 17013KT 20/20 A2989 RMK A01 T02030203  RH  100%=      5-min Rain = 0
KGO1 231001Z 17014KT 20/20 A2989 RMK A01 T02040204  RH  100%=      5-min Rain = 0
KGO1 231002Z 16013KT 20/20 A2989 RMK A01 T02040204  RH  100%=      5-min Rain = 0
KGO1 231003Z 17011KT 20/20 A2989 RMK A01 T02030204  RH  100%=      5-min Rain = 0
KGO1 231004Z 17010KT 20/20 A2989 RMK A01 T02030204  RH  100%=      5-min Rain = 0
KGO1 231005Z 16012KT 20/20 A2989 RMK A01 T02040204  RH  100%=      5-min Rain = 0
KGO1 231006Z 16013KT 20/20 A2989 RMK A01 T02030204  RH  100%=      5-min Rain = 0
KGO1 231007Z 16012KT 20/20 A2989 RMK A01 T02040204  RH  100%=      5-min Rain = 0
KGO1 231008Z 16010KT 20/20 A2989 RMK A01 T02040204  RH  100%=      5-min Rain = 0
KGO1 231009Z 16013KT 20/20 A2989 RMK A01 T02030203  RH  100%=      5-min Rain = 0
KGO1 231010Z 16014KT 20/20 A2989 RMK A01 T02030203  RH  100%=      5-min Rain = 0
KGO1 231011Z 16013KT 20/20 A2989 RMK A01 T02030203  RH  100%=      5-min Rain = 0
KGO1 231012Z 16011KT 20/20 A2989 RMK A01 T02030203  RH  100%=      5-min Rain = 0
KGO1 231013Z 16011KT 20/20 A2989 RMK A01 T02030203  RH  100%=      5-min Rain = 0
KGO1 231014Z 16009KT 20/20 A2989 RMK A01 T02030203  RH  100%=      5-min Rain = 0
KGO1 231015Z 16012KT 20/20 A2989 RMK A01 T02030203  RH  100%=      5-min Rain = 0
KGO1 231016Z 16010KT 20/20 A2989 RMK A01 T02030203  RH  100%=      5-min Rain = 0
KGO1 231017Z 16011KT 20/20 A2989 RMK A01 T02030203  RH  100%=      5-min Rain = 0
KGO1 231018Z 16010KT 20/20 A2989 RMK A01 T02030203  RH  100%=      5-min Rain = 0
KGO1 231019Z 16010KT 20/20 A2989 RMK A01 T02030203  RH  100%=      5-min Rain = 0
KGO1 231020Z 17010KT 20/20 A2989 RMK A01 T02030203  RH  100%=      5-min Rain = 0
KGO1 231021Z 16010KT 20/20 A2989 RMK A01 T02020202  RH  100%=      5-min Rain = 0
KGO1 231022Z 16010KT 20/20 A2989 RMK A01 T02020202  RH  100%=      5-min Rain = 0
KGO1 231023Z 17010KT 20/20 A2989 RMK A01 T02020202  RH  100%=      5-min Rain = 0
KGO1 231024Z 17009KT 20/20 A2989 RMK A01 T02020202  RH  100%=      5-min Rain = 0
KGO1 231025Z 17010KT 20/20 A2989 RMK A01 T02010202  RH  100%=      5-min Rain = 0
KGO1 231026Z 17010KT 20/20 A2989 RMK A01 T02010202  RH  100%=      5-min Rain = 0
KGO1 231027Z 17011KT 20/20 A2989 RMK A01 T02020202  RH  100%=      5-min Rain = 0
KGO1 231028Z 17010KT 20/20 A2989 RMK A01 T02010201  RH  100%=      5-min Rain = 0
KGO1 231029Z 17011KT 20/20 A2989 RMK A01 T02010201  RH  100%=      5-min Rain = 0
KGO1 231030Z 17010KT 20/20 A299 RMK A01 T02010201  RH  100%=      5-min Rain = 0
KGO1 231031Z 17009KT 20/20 A299 RMK A01 T02010201  RH  100%=      5-min Rain = 0
KGO1 231032Z 16009KT 20/20 A299 RMK A01 T02010201  RH  100%=      5-min Rain = 0
KGO1 231033Z 17010KT 20/20 A299 RMK A01 T02000201  RH  100%=      5-min Rain = 0
KGO1 231034Z 17010KT 20/20 A299 RMK A01 T02010201  RH  100%=      5-min Rain = 0
KGO1 231035Z 16011KT 20/20 A299 RMK A01 T02010201  RH  100%=      5-min Rain = 0
KGO1 231036Z 16010KT 20/20 A299 RMK A01 T02010201  RH  100%=      5-min Rain = 0
KGO1 231037Z 16008KT 20/20 A299 RMK A01 T02010201  RH  100%=      5-min Rain = 0
KGO1 231038Z 17010KT 20/20 A299 RMK A01 T02010201  RH  100%=      5-min Rain = 0
KGO1 231039Z 16011KT 20/20 A299 RMK A01 T02010201  RH  100%=      5-min Rain = 0
KGO1 231040Z 16011KT 20/20 A299 RMK A01 T02010201  RH  100%=      5-min Rain = 0
KGO1 231041Z 16010KT 20/20 A299 RMK A01 T02020202  RH  100%=      5-min Rain = 0
KGO1 231042Z 16009KT 20/20 A299 RMK A01 T02020202  RH  100%=      5-min Rain = 0
KGO1 231043Z 16009KT 20/20 A299 RMK A01 T02020202  RH  100%=      5-min Rain = 0
KGO1 231044Z 16010KT 20/20 A299 RMK A01 T02020202  RH  100%=      5-min Rain = 0
KGO1 231045Z 16009KT 20/20 A299 RMK A01 T02020202  RH  100%=      5-min Rain = 0
KGO1 231046Z 16010KT 20/20 A299 RMK A01 T02020202  RH  100%=      5-min Rain = 0
KGO1 231047Z 16009KT 20/20 A299 RMK A01 T02020202  RH  100%=      5-min Rain = 0
KGO1 231048Z 16010KT 20/20 A299 RMK A01 T02020202  RH  100%=      5-min Rain = 0
KGO1 231049Z 16009KT 20/20 A299 RMK A01 T02020202  RH  100%=      5-min Rain = 0
KGO1 231050Z 16010KT 20/20 A299 RMK A01 T02020202  RH  100%=      5-min Rain = 0
KGO1 231051Z 16010KT 20/20 A299 RMK A01 T02020202  RH  100%=      5-min Rain = 0
KGO1 231052Z 16009KT 20/20 A299 RMK A01 T02020202  RH  100%=      5-min Rain = 0
KGO1 231053Z 16009KT 20/20 A299 RMK A01 T02020202  RH  100%=      5-min Rain = 0
KGO1 231054Z 15010KT 20/20 A299 RMK A01 T02020202  RH  100%=      5-min Rain = 0
KGO1 231055Z 15010KT 20/20 A299 RMK A01 T02020202  RH  100%=      5-min Rain = 0
KGO1 231056Z 16010KT 20/20 A299 RMK A01 T02020203  RH  100%=      5-min Rain = 0
KGO1 231057Z 16009KT 20/20 A2991 RMK A01 T02020202  RH  100%=      5-min Rain = 0
KGO1 231058Z 17010KT 20/20 A2991 RMK A01 T02030203  RH  100%=      5-min Rain = 0
KGO1 231059Z 17010KT 20/20 A2991 RMK A01 T02030203  RH  100%=      5-min Rain = 0
KGO1 231100Z 15010KT 20/20 A2991 RMK A01 T02030203  RH  100%=      5-min Rain = 0
KGO1 231101Z 14011KT 20/20 A2991 RMK A01 T02030203  RH  100%=      5-min Rain = 0
KGO1 231102Z 14010KT 20/20 A2991 RMK A01 T02030203  RH  100%=      5-min Rain = 0
KGO1 231103Z 15012KT 20/20 A2991 RMK A01 T02030203  RH  100%=      5-min Rain = 0
KGO1 231104Z 14010KT 20/20 A2991 RMK A01 T02030203  RH  100%=      5-min Rain = 0
KGO1 231105Z 14010KT 20/20 A2991 RMK A01 T02030203  RH  100%=      5-min Rain = 0
KGO1 231106Z 14009KT 20/20 A2991 RMK A01 T02030203  RH  100%=      5-min Rain = 0
KGO1 231107Z 14011KT 20/20 A2991 RMK A01 T02030203  RH  100%=      5-min Rain = 0
KGO1 231108Z 14010KT 20/20 A2991 RMK A01 T02030203  RH  100%=      5-min Rain = 0
KGO1 231109Z 15010KT 20/20 A2991 RMK A01 T02030203  RH  100%=      5-min Rain = 0
KGO1 231110Z 15011KT 20/20 A2991 RMK A01 T02030203  RH  100%=      5-min Rain = 0
KGO1 231111Z 14012KT 20/20 A2991 RMK A01 T02030203  RH  100%=      5-min Rain = 0
KGO1 231112Z 14011KT 20/20 A2991 RMK A01 T02030204  RH  100%=      5-min Rain = 0
KGO1 231113Z 14010KT 20/20 A2991 RMK A01 T02040204  RH  100%=      5-min Rain = 0
KGO1 231114Z 14010KT 20/20 A2991 RMK A01 T02040204  RH  100%=      5-min Rain = 0
KGO1 231115Z 14009KT 20/20 A2992 RMK A01 T02040204  RH  100%=      5-min Rain = 0
KGO1 231116Z 14010KT 20/20 A2992 RMK A01 T02040204  RH  100%=      5-min Rain = 0
KGO1 231117Z 14008KT 20/20 A2992 RMK A01 T02040204  RH  100%=      5-min Rain = 0
KGO1 231118Z 15009KT 20/20 A2992 RMK A01 T02040204  RH  100%=      5-min Rain = 0
KGO1 231119Z 14009KT 20/20 A2992 RMK A01 T02030203  RH  100%=      5-min Rain = 0
KGO1 231120Z 14009KT 20/20 A2992 RMK A01 T02030204  RH  100%=      5-min Rain = 0
KGO1 231121Z 14010KT 20/20 A2992 RMK A01 T02030203  RH  100%=      5-min Rain = 0
KGO1 231122Z 14010KT 20/20 A2992 RMK A01 T02040204  RH  100%=      5-min Rain = 0
KGO1 231123Z 14009KT 20/20 A2992 RMK A01 T02030204  RH  100%=      5-min Rain = 0
KGO1 231124Z 15009KT 20/20 A2992 RMK A01 T02040204  RH  100%=      5-min Rain = 0
KGO1 231125Z 14010KT 20/20 A2992 RMK A01 T02040204  RH  100%=      5-min Rain = 0
KGO1 231126Z 13010KT 20/20 A2992 RMK A01 T02030203  RH  100%=      5-min Rain = 0
KGO1 231127Z 13010KT 20/20 A2992 RMK A01 T02040204  RH  100%=      5-min Rain = 0
KGO1 231128Z 14012KT 20/20 A2992 RMK A01 T02040204  RH  100%=      5-min Rain = 0
KGO1 231129Z 14012KT 20/20 A2992 RMK A01 T02040204  RH  100%=      5-min Rain = 0
KGO1 231130Z 14012KT 20/20 A2992 RMK A01 T02040204  RH  100%=      5-min Rain = 0
KGO1 231131Z 14011KT 20/20 A2992 RMK A01 T02040204  RH  100%=      5-min Rain = 0
KGO1 231132Z 14010KT 20/20 A2992 RMK A01 T02030203  RH  100%=      5-min Rain = 0
KGO1 231133Z 14010KT 20/20 A2992 RMK A01 T02030204  RH  100%=      5-min Rain = 0
KGO1 231134Z 14010KT 20/20 A2992 RMK A01 T02030204  RH  100%=      5-min Rain = 0
KGO1 231135Z 14010KT 20/20 A2992 RMK A01 T02030203  RH  100%=      5-min Rain = 0
KGO1 231136Z 13012KT 20/20 A2992 RMK A01 T02030204  RH  100%=      5-min Rain = 0
KGO1 231137Z 14012KT 20/20 A2992 RMK A01 T02040204  RH  100%=      5-min Rain = 0
KGO1 231138Z 14012KT 20/20 A2992 RMK A01 T02030204  RH  100%=      5-min Rain = 0
KGO1 231139Z 14010KT 20/20 A2992 RMK A01 T02040204  RH  100%=      5-min Rain = 0
KGO1 231140Z 14010KT 20/20 A2992 RMK A01 T02030204  RH  100%=      5-min Rain = 0
KGO1 231141Z 14011KT 20/20 A2992 RMK A01 T02030204  RH  100%=      5-min Rain = 0
KGO1 231142Z 14010KT 20/20 A2992 RMK A01 T02040204  RH  100%=      5-min Rain = 0
KGO1 231143Z 14010KT 20/20 A2992 RMK A01 T02040204  RH  100%=      5-min Rain = 0
KGO1 231144Z 15010KT 20/20 A2992 RMK A01 T02040204  RH  100%=      5-min Rain = 0
KGO1 231145Z 15012KT 20/20 A2992 RMK A01 T02040204  RH  100%=      5-min Rain = 0
KGO1 231146Z 14012KT 20/20 A2992 RMK A01 T02030203  RH  100%=      5-min Rain = 0
KGO1 231147Z 14013KT 20/20 A2992 RMK A01 T02030203  RH  100%=      5-min Rain = 0
KGO1 231148Z 14012KT 20/20 A2992 RMK A01 T02030204  RH  100%=      5-min Rain = 0
KGO1 231149Z 14014KT 20/20 A2992 RMK A01 T02030204  RH  100%=      5-min Rain = 0
KGO1 231150Z 14012KT 20/20 A2992 RMK A01 T02040204  RH  100%=      5-min Rain = 0
KGO1 231151Z 14012KT 20/20 A2992 RMK A01 T02040204  RH  100%=      5-min Rain = 0
KGO1 231152Z 14011KT 20/20 A2992 RMK A01 T02040204  RH  100%=      5-min Rain = 0
KGO1 231153Z 14013KT 20/20 A2992 RMK A01 T02040204  RH  100%=      5-min Rain = 0
KGO1 231154Z 15012KT 20/20 A2992 RMK A01 T02040204  RH  100%=      5-min Rain = 0
KGO1 231155Z 14012KT 20/20 A2992 RMK A01 T02040204  RH  100%=      5-min Rain = 0
KGO1 231156Z 14011KT 20/20 A2992 RMK A01 T02040204  RH  100%=      5-min Rain = 0
KGO1 231157Z 14011KT 20/20 A2992 RMK A01 T02040204  RH  100%=      5-min Rain = 0
KGO1 231158Z 14012KT 20/20 A2992 RMK A01 T02040204  RH  100%=      5-min Rain = 0
KGO1 231159Z 14013KT 20/20 A2993 RMK A01 T02040204  RH  100%=      5-min Rain = 0
KGO1 231200Z 14013KT 20/20 A2993 RMK A01 T02040204  RH  100%=      5-min Rain = 0
KGO1 231201Z 14011KT 21/21 A2993 RMK A01 T02050205  RH  100%=      5-min Rain = 0
KGO1 231202Z 14011G16KT 21/21 A2993 RMK A01 T02050205  RH  100%=      5-min Rain = 0
KGO1 231203Z 14012KT 21/21 A2993 RMK A01 T02050205  RH  100%=      5-min Rain = 0
KGO1 231204Z 14010KT 20/21 A2993 RMK A01 T02040205  RH  100%=      5-min Rain = 0
KGO1 231205Z 13011KT 20/21 A2993 RMK A01 T02040205  RH  100%=      5-min Rain = 0
KGO1 231206Z 14009KT 20/20 A2993 RMK A01 T02040204  RH  100%=      5-min Rain = 0
KGO1 231207Z 13010KT 20/20 A2992 RMK A01 T02040204  RH  100%=      5-min Rain = 0
KGO1 231208Z 13010KT 21/21 A2992 RMK A01 T02050205  RH  100%=      5-min Rain = 0
KGO1 231209Z 13010KT 21/21 A2992 RMK A01 T02050205  RH  100%=      5-min Rain = 0
KGO1 231210Z 13009KT 20/21 A2992 RMK A01 T02040205  RH  100%=      5-min Rain = 0
KGO1 231211Z 13010KT 20/21 A2992 RMK A01 T02040205  RH  100%=      5-min Rain = 0
KGO1 231212Z 13010KT 21/21 A2992 RMK A01 T02050205  RH  100%=      5-min Rain = 0
KGO1 231213Z 13009KT 21/21 A2992 RMK A01 T02050205  RH  100%=      5-min Rain = 0
KGO1 231214Z 13011KT 21/21 A2992 RMK A01 T02050205  RH  100%=      5-min Rain = 0
KGO1 231215Z 14010KT 21/21 A2993 RMK A01 T02050205  RH  100%=      5-min Rain = 0
KGO1 231216Z 13012KT 21/21 A2992 RMK A01 T02050205  RH  100%=      5-min Rain = 0
KGO1 231217Z 13011KT 21/21 A2993 RMK A01 T02060206  RH  100%=      5-min Rain = 0
KGO1 231218Z 13010KT 21/21 A2993 RMK A01 T02050205  RH  100%=      5-min Rain = 0
KGO1 231219Z 13010KT 21/21 A2993 RMK A01 T02060206  RH  100%=      5-min Rain = 0
KGO1 231220Z 13011KT 21/21 A2993 RMK A01 T02060206  RH  100%=      5-min Rain = 0
KGO1 231221Z 12010KT 21/21 A2993 RMK A01 T02060206  RH  100%=      5-min Rain = 0
KGO1 231222Z 13011KT 21/21 A2993 RMK A01 T02060206  RH  100%=      5-min Rain = 0
KGO1 231223Z 14010KT 21/21 A2993 RMK A01 T02060206  RH  100%=      5-min Rain = 0
KGO1 231224Z 14011KT 21/21 A2993 RMK A01 T02060206  RH  100%=      5-min Rain = 0
KGO1 231225Z 14011KT 21/21 A2993 RMK A01 T02060206  RH  100%=      5-min Rain = 0
KGO1 231226Z 14011KT 21/21 A2993 RMK A01 T02060206  RH  100%=      5-min Rain = 0
KGO1 231227Z 13010KT 21/21 A2993 RMK A01 T02060206  RH  100%=      5-min Rain = 0
KGO1 231228Z 14009KT 21/21 A2993 RMK A01 T02060207  RH  100%=      5-min Rain = 0
KGO1 231229Z 13012KT 21/21 A2993 RMK A01 T02060206  RH  100%=      5-min Rain = 0
KGO1 231230Z 14010KT 21/21 A2993 RMK A01 T02060206  RH  100%=      5-min Rain = 0
KGO1 231231Z 14011KT 21/21 A2993 RMK A01 T02060207  RH  100%=      5-min Rain = 0
KGO1 231232Z 14011KT 21/21 A2993 RMK A01 T02060206  RH  100%=      5-min Rain = 0
KGO1 231233Z 14011KT 21/21 A2993 RMK A01 T02070207  RH  100%=      5-min Rain = 0
KGO1 231234Z 13012KT 21/21 A2993 RMK A01 T02070207  RH  100%=      5-min Rain = 0
KGO1 231235Z 14011KT 21/21 A2993 RMK A01 T02070207  RH  100%=      5-min Rain = 0
KGO1 231236Z 13014KT 21/21 A2993 RMK A01 T02070207  RH  100%=      5-min Rain = 0
KGO1 231237Z 14012G17KT 21/21 A2993 RMK A01 T02070207  RH  100%=      5-min Rain = 0
KGO1 231238Z 14012KT 21/21 A2993 RMK A01 T02070208  RH  100%=      5-min Rain = 0
KGO1 231239Z 13012KT 21/21 A2993 RMK A01 T02070208  RH  100%=      5-min Rain = 0
KGO1 231240Z 14014KT 21/21 A2993 RMK A01 T02070207  RH  100%=      5-min Rain = 0
KGO1 231241Z 14014KT 21/21 A2993 RMK A01 T02070207  RH  100%=      5-min Rain = 0
KGO1 231242Z 14013KT 21/21 A2993 RMK A01 T02070207  RH  100%=      5-min Rain = 0
KGO1 231243Z 14013KT 21/21 A2993 RMK A01 T02070207  RH  100%=      5-min Rain = 0
KGO1 231244Z 13013KT 21/21 A2993 RMK A01 T02070207  RH  100%=      5-min Rain = 0
KGO1 231245Z 14013KT 21/21 A2993 RMK A01 T02080208  RH  100%=      5-min Rain = 0
KGO1 231246Z 13012KT 21/21 A2993 RMK A01 T02080208  RH  100%=      5-min Rain = 0
KGO1 231247Z 14013KT 21/21 A2993 RMK A01 T02080208  RH  100%=      5-min Rain = 0
KGO1 231248Z 14011KT 21/21 A2993 RMK A01 T02080208  RH  100%=      5-min Rain = 0
KGO1 231249Z 13010KT 21/21 A2993 RMK A01 T02080208  RH  100%=      5-min Rain = 0
KGO1 231250Z 14011G17KT 21/21 A2993 RMK A01 T02080208  RH  100%=      5-min Rain = 0
KGO1 231251Z 13016KT 21/21 A2993 RMK A01 T02080208  RH  100%=      5-min Rain = 0
KGO1 231252Z 13016KT 21/21 A2993 RMK A01 T02080208  RH  100%=      5-min Rain = 0
KGO1 231253Z 13016KT 21/21 A2993 RMK A01 T02090208  RH  100%=      5-min Rain = 0
KGO1 231254Z 13015KT 21/21 A2992 RMK A01 T02080208  RH  100%=      5-min Rain = 0
KGO1 231255Z 13014KT 21/21 A2992 RMK A01 T02090208  RH  100%=      5-min Rain = 0
KGO1 231256Z 13016KT 21/21 A2992 RMK A01 T02090208  RH  100%=      5-min Rain = 0
KGO1 231257Z 13015KT 21/21 A2992 RMK A01 T02090208  RH  100%=      5-min Rain = 0
KGO1 231258Z 13015KT 21/21 A2992 RMK A01 T02080208  RH  100%=      5-min Rain = 0
KGO1 231259Z 13014KT 21/21 A2992 RMK A01 T02090208  RH  100%=      5-min Rain = 0
KGO1 231300Z 13015KT 21/21 A2992 RMK A01 T02090208  RH  100%=      5-min Rain = 0
KGO1 231301Z 13016KT 21/21 A2992 RMK A01 T02090209  RH  100%=      5-min Rain = 0
KGO1 231302Z 12016KT 21/21 A2992 RMK A01 T02090208  RH  100%=      5-min Rain = 0
KGO1 231303Z 13016KT 21/21 A2992 RMK A01 T02090208  RH  099%=      5-min Rain = 0
KGO1 231304Z 13015KT 21/21 A2992 RMK A01 T02090208  RH  099%=      5-min Rain = 0
KGO1 231305Z 13016KT 21/21 A2992 RMK A01 T02090208  RH  099%=      5-min Rain = 0
KGO1 231306Z 14014KT 21/21 A2992 RMK A01 T02090208  RH  099%=      5-min Rain = 0
KGO1 231307Z 13012KT 21/21 A2992 RMK A01 T02100208  RH  099%=      5-min Rain = 0
KGO1 231308Z 13015G21KT 21/21 A2992 RMK A01 T02100209  RH  099%=      5-min Rain = 0
KGO1 231309Z 13016KT 21/21 A2992 RMK A01 T02100208  RH  099%=      5-min Rain = 0
KGO1 231310Z 13015KT 21/21 A2992 RMK A01 T02100208  RH  098%=      5-min Rain = 0
KGO1 231311Z 13018KT 21/21 A2992 RMK A01 T02110208  RH  098%=      5-min Rain = 0
KGO1 231312Z 13016KT 21/21 A2992 RMK A01 T02110208  RH  098%=      5-min Rain = 0
KGO1 231313Z 13016KT 21/21 A2992 RMK A01 T02110208  RH  098%=      5-min Rain = 0
KGO1 231314Z 14013KT 21/21 A2992 RMK A01 T02110208  RH  098%=      5-min Rain = 0
KGO1 231315Z 13014KT 21/21 A2992 RMK A01 T02110208  RH  098%=      5-min Rain = 0
KGO1 231316Z 13016KT 21/21 A2992 RMK A01 T02120208  RH  098%=      5-min Rain = 0
KGO1 231317Z 13012KT 21/21 A2991 RMK A01 T02120208  RH  098%=      5-min Rain = 0
KGO1 231318Z 13013KT 21/21 A2991 RMK A01 T02130209  RH  097%=      5-min Rain = 0
KGO1 231319Z 13014KT 21/21 A2991 RMK A01 T02130209  RH  098%=      5-min Rain = 0
KGO1 231320Z 12017KT 21/21 A2992 RMK A01 T02140209  RH  097%=      5-min Rain = 0
KGO1 231321Z 13016KT 21/21 A2992 RMK A01 T02140208  RH  096%=      5-min Rain = 0
KGO1 231322Z 13015KT 22/21 A2992 RMK A01 T02150209  RH  096%=      5-min Rain = 0
KGO1 231323Z 13015KT 22/21 A2992 RMK A01 T02160209  RH  096%=      5-min Rain = 0
KGO1 231324Z 13016KT 22/21 A2992 RMK A01 T02160208  RH  095%=      5-min Rain = 0
KGO1 231325Z 13015KT 22/21 A2992 RMK A01 T02160208  RH  095%=      5-min Rain = 0
KGO1 231326Z 14016KT 22/21 A2992 RMK A01 T02170208  RH  095%=      5-min Rain = 0
KGO1 231327Z 13016KT 22/21 A2992 RMK A01 T02160208  RH  095%=      5-min Rain = 0
KGO1 231328Z 13016KT 22/21 A2992 RMK A01 T02160208  RH  095%=      5-min Rain = 0
KGO1 231329Z 13017KT 22/21 A2991 RMK A01 T02160207  RH  095%=      5-min Rain = 0
KGO1 231330Z 13016KT 22/21 A2991 RMK A01 T02160207  RH  095%=      5-min Rain = 0
KGO1 231331Z 13013KT 22/21 A2991 RMK A01 T02170208  RH  095%=      5-min Rain = 0
KGO1 231332Z 13016KT 22/21 A2991 RMK A01 T02180208  RH  094%=      5-min Rain = 0
KGO1 231333Z 13014KT 22/21 A2992 RMK A01 T02190208  RH  093%=      5-min Rain = 0
KGO1 231334Z 12016G21KT 22/21 A2992 RMK A01 T02190207  RH  093%=      5-min Rain = 0
KGO1 231335Z 12017KT 22/21 A2992 RMK A01 T02190207  RH  093%=      5-min Rain = 0
KGO1 231336Z 13018KT 22/21 A2992 RMK A01 T02180207  RH  093%=      5-min Rain = 0
KGO1 231337Z 13016KT 22/21 A2992 RMK A01 T02180207  RH  094%=      5-min Rain = 0
KGO1 231338Z 12016KT 22/21 A2992 RMK A01 T02180208  RH  094%=      5-min Rain = 0
KGO1 231339Z 13014KT 22/21 A2992 RMK A01 T02190208  RH  094%=      5-min Rain = 0
KGO1 231340Z 14017KT 22/21 A2992 RMK A01 T02190208  RH  093%=      5-min Rain = 0
KGO1 231341Z 13016KT 22/21 A2992 RMK A01 T02190207  RH  093%=      5-min Rain = 0
KGO1 231342Z 13015KT 22/21 A2992 RMK A01 T02200208  RH  093%=      5-min Rain = 0
KGO1 231343Z 13016KT 22/21 A2992 RMK A01 T02190207  RH  093%=      5-min Rain = 0
KGO1 231344Z 13015KT 22/21 A2992 RMK A01 T02190207  RH  093%=      5-min Rain = 0
KGO1 231345Z 13015KT 22/21 A2992 RMK A01 T02190207  RH  093%=      5-min Rain = 0
KGO1 231346Z 13016KT 22/21 A2991 RMK A01 T02190207  RH  093%=      5-min Rain = 0
KGO1 231347Z 13017KT 22/21 A2992 RMK A01 T02180207  RH  093%=      5-min Rain = 0
KGO1 231348Z 13018KT 22/21 A2992 RMK A01 T02180206  RH  093%=      5-min Rain = 0
KGO1 231349Z 13017KT 22/21 A2992 RMK A01 T02180207  RH  093%=      5-min Rain = 0
KGO1 231350Z 13014KT 22/21 A2992 RMK A01 T02180207  RH  094%=      5-min Rain = 0
KGO1 231351Z 14013KT 22/21 A2992 RMK A01 T02180208  RH  094%=      5-min Rain = 0
KGO1 231352Z 14015KT 22/21 A2992 RMK A01 T02190208  RH  094%=      5-min Rain = 0
KGO1 231353Z 13016KT 22/21 A2992 RMK A01 T02190208  RH  093%=      5-min Rain = 0
KGO1 231354Z 13015KT 22/21 A2992 RMK A01 T02180207  RH  093%=      5-min Rain = 0
KGO1 231355Z 13016KT 22/21 A2992 RMK A01 T02180207  RH  094%=      5-min Rain = 0
KGO1 231356Z 13016KT 22/21 A2992 RMK A01 T02170207  RH  094%=      5-min Rain = 0
KGO1 231357Z 13016KT 22/21 A2992 RMK A01 T02160207  RH  094%=      5-min Rain = 0
KGO1 231358Z 13017KT 22/21 A2992 RMK A01 T02160207  RH  094%=      5-min Rain = 0
KGO1 231359Z 13014KT 22/21 A2992 RMK A01 T02150206  RH  095%=      5-min Rain = 0
KGO1 231400Z 14013KT 22/21 A2992 RMK A01 T02150207  RH  095%=      5-min Rain = 0
KGO1 231401Z 14016KT 22/21 A2992 RMK A01 T02150207  RH  095%=      5-min Rain = 0
KGO1 231402Z 13015KT 22/21 A2992 RMK A01 T02150207  RH  095%=      5-min Rain = 0
KGO1 231403Z 13015KT 22/21 A2992 RMK A01 T02150207  RH  095%=      5-min Rain = 0
KGO1 231404Z 13014KT 22/21 A2992 RMK A01 T02150206  RH  095%=      5-min Rain = 0
KGO1 231405Z 14014KT 22/21 A2992 RMK A01 T02150206  RH  095%=      5-min Rain = 0
KGO1 231406Z 14016KT 21/21 A2992 RMK A01 T02140206  RH  095%=      5-min Rain = 0
KGO1 231407Z 14015KT 21/21 A2992 RMK A01 T02140206  RH  095%=      5-min Rain = 0
KGO1 231408Z 14016KT 21/21 A2992 RMK A01 T02140206  RH  095%=      5-min Rain = 0
KGO1 231409Z 13015KT 21/21 A2992 RMK A01 T02140206  RH  095%=      5-min Rain = 0
KGO1 231410Z 14014KT 21/21 A2992 RMK A01 T02140205  RH  095%=      5-min Rain = 0
KGO1 231411Z 13016G21KT 21/21 A2992 RMK A01 T02140205  RH  095%=      5-min Rain = 0
KGO1 231412Z 13017KT 21/21 A2992 RMK A01 T02140205  RH  095%=      5-min Rain = 0
KGO1 231413Z 13015G21KT 21/21 A2992 RMK A01 T02130206  RH  095%=      5-min Rain = 0
KGO1 231414Z 13017KT 21/21 A2992 RMK A01 T02140206  RH  095%=      5-min Rain = 0
KGO1 231415Z 13018KT 21/21 A2992 RMK A01 T02140206  RH  095%=      5-min Rain = 0
KGO1 231416Z 13018G23KT 21/21 A2992 RMK A01 T02140206  RH  095%=      5-min Rain = 0
KGO1 231417Z 14018KT 21/21 A2992 RMK A01 T02140206  RH  095%=      5-min Rain = 0
KGO1 231418Z 14016G21KT 21/21 A2992 RMK A01 T02140206  RH  095%=      5-min Rain = 0
KGO1 231419Z 13014G19KT 21/21 A2992 RMK A01 T02140206  RH  095%=      5-min Rain = 0
KGO1 231420Z 13015KT 21/21 A2992 RMK A01 T02140206  RH  095%=      5-min Rain = 0
KGO1 231421Z 14014KT 21/21 A2992 RMK A01 T02140205  RH  095%=      5-min Rain = 0
KGO1 231422Z 14013G18KT 21/21 A2992 RMK A01 T02140206  RH  095%=      5-min Rain = 0
KGO1 231423Z 14016KT 21/21 A2992 RMK A01 T02130206  RH  095%=      5-min Rain = 0
KGO1 231424Z 14014KT 21/21 A2992 RMK A01 T02130206  RH  095%=      5-min Rain = 0
KGO1 231425Z 14013G18KT 21/21 A2992 RMK A01 T02140206  RH  095%=      5-min Rain = 0
KGO1 231426Z 14015KT 21/21 A2992 RMK A01 T02130206  RH  095%=      5-min Rain = 0
KGO1 231427Z 14014KT 21/21 A2992 RMK A01 T02130206  RH  095%=      5-min Rain = 0
KGO1 231428Z 13013KT 21/21 A2992 RMK A01 T02140206  RH  095%=      5-min Rain = 0
KGO1 231429Z 13013KT 21/21 A2992 RMK A01 T02140206  RH  095%=      5-min Rain = 0
KGO1 231430Z 13014G19KT 21/21 A2992 RMK A01 T02140206  RH  095%=      5-min Rain = 0
KGO1 231431Z 13016KT 21/21 A2992 RMK A01 T02140205  RH  095%=      5-min Rain = 0
KGO1 231432Z 13013KT 21/21 A2992 RMK A01 T02140205  RH  095%=      5-min Rain = 0
KGO1 231433Z 13015KT 21/21 A2992 RMK A01 T02140206  RH  095%=      5-min Rain = 0
KGO1 231434Z 13015KT 21/21 A2992 RMK A01 T02140206  RH  095%=      5-min Rain = 0
KGO1 231435Z 13014KT 21/21 A2992 RMK A01 T02140207  RH  095%=      5-min Rain = 0
KGO1 231436Z 14014KT 21/21 A2992 RMK A01 T02140206  RH  095%=      5-min Rain = 0
KGO1 231437Z 13014KT 21/21 A2992 RMK A01 T02140206  RH  095%=      5-min Rain = 0
KGO1 231438Z 13013KT 21/21 A2992 RMK A01 T02140206  RH  095%=      5-min Rain = 0
KGO1 231439Z 14013G18KT 21/21 A2992 RMK A01 T02140206  RH  095%=      5-min Rain = 0
KGO1 231440Z 13014KT 21/21 A2992 RMK A01 T02140207  RH  095%=      5-min Rain = 0
KGO1 231441Z 13011KT 21/21 A2992 RMK A01 T02140206  RH  095%=      5-min Rain = 0
KGO1 231442Z 13014KT 21/21 A2992 RMK A01 T02140207  RH  096%=      5-min Rain = 0
KGO1 231443Z 13016KT 21/21 A2992 RMK A01 T02140206  RH  095%=      5-min Rain = 0
KGO1 231444Z 14016KT 21/21 A2992 RMK A01 T02140206  RH  095%=      5-min Rain = 0
KGO1 231445Z 13015KT 21/21 A2992 RMK A01 T02140206  RH  095%=      5-min Rain = 0
KGO1 231446Z 13013KT 21/21 A2992 RMK A01 T02140206  RH  096%=      5-min Rain = 0
KGO1 231447Z 13014KT 21/21 A2992 RMK A01 T02140207  RH  096%=      5-min Rain = 0
KGO1 231448Z 14015KT 21/21 A2992 RMK A01 T02130206  RH  096%=      5-min Rain = 0
KGO1 231449Z 13015KT 21/21 A2992 RMK A01 T02130206  RH  095%=      5-min Rain = 0
KGO1 231450Z 14014KT 21/21 A2992 RMK A01 T02130206  RH  095%=      5-min Rain = 0
KGO1 231451Z 13015KT 21/21 A2992 RMK A01 T02140206  RH  095%=      5-min Rain = 0
KGO1 231452Z 13014KT 21/21 A2992 RMK A01 T02140206  RH  096%=      5-min Rain = 0
KGO1 231453Z 13012KT 21/21 A2992 RMK A01 T02140207  RH  096%=      5-min Rain = 0
KGO1 231454Z 12012KT 21/21 A2992 RMK A01 T02130207  RH  096%=      5-min Rain = 0
KGO1 231455Z 13014KT 21/21 A2992 RMK A01 T02130207  RH  096%=      5-min Rain = 0
KGO1 231456Z 13013KT 21/21 A2992 RMK A01 T02130207  RH  096%=      5-min Rain = 0
KGO1 231457Z 13012KT 21/21 A2992 RMK A01 T02130207  RH  096%=      5-min Rain = 0
KGO1 231458Z 13013G18KT 21/21 A2992 RMK A01 T02130207  RH  096%=      5-min Rain = 0
KGO1 231459Z 13015KT 21/21 A2992 RMK A01 T02130207  RH  096%=      5-min Rain = 0
KGO1 231500Z 13014KT 21/21 A2992 RMK A01 T02120206  RH  096%=      5-min Rain = 0
KGO1 231501Z 13014KT 21/21 A2992 RMK A01 T02130206  RH  096%=      5-min Rain = 0
KGO1 231502Z 13011KT 21/21 A2992 RMK A01 T02130206  RH  096%=      5-min Rain = 0
KGO1 231503Z 13013KT 21/21 A2992 RMK A01 T02130206  RH  096%=      5-min Rain = 0
KGO1 231504Z 13014KT 21/21 A2992 RMK A01 T02120206  RH  096%=      5-min Rain = 0
KGO1 231505Z 13014KT 21/21 A2992 RMK A01 T02130206  RH  096%=      5-min Rain = 0
KGO1 231506Z 13015KT 21/21 A2992 RMK A01 T02120206  RH  096%=      5-min Rain = 0
KGO1 231507Z 14014KT 21/21 A2992 RMK A01 T02120206  RH  096%=      5-min Rain = 0
KGO1 231508Z 13015KT 21/21 A2992 RMK A01 T02120206  RH  097%=      5-min Rain = 0
KGO1 231509Z 14014KT 21/21 A2992 RMK A01 T02120207  RH  097%=      5-min Rain = 0
KGO1 231510Z 14012KT 21/21 A2992 RMK A01 T02120206  RH  097%=      5-min Rain = 0
KGO1 231511Z 15012KT 21/21 A2992 RMK A01 T02120207  RH  097%=      5-min Rain = 0
KGO1 231512Z 14013KT 21/21 A2992 RMK A01 T02120206  RH  097%=      5-min Rain = 0
KGO1 231513Z 14012KT 21/21 A2992 RMK A01 T02120207  RH  097%=      5-min Rain = 0
KGO1 231514Z 13010KT 21/21 A2992 RMK A01 T02120207  RH  097%=      5-min Rain = 0
KGO1 231515Z 13010KT 21/21 A2992 RMK A01 T02120207  RH  097%=      5-min Rain = 0
KGO1 231516Z 13011KT 21/21 A2992 RMK A01 T02120208  RH  097%=      5-min Rain = 0
KGO1 231517Z 13011KT 21/21 A2992 RMK A01 T02120208  RH  097%=      5-min Rain = 0
KGO1 231518Z 13011G16KT 21/21 A2992 RMK A01 T02120208  RH  097%=      5-min Rain = 0
KGO1 231519Z 14012KT 21/21 A2992 RMK A01 T02120207  RH  097%=      5-min Rain = 0
KGO1 231520Z 14011KT 21/21 A2992 RMK A01 T02120207  RH  097%=      5-min Rain = 0
KGO1 231521Z 14010KT 21/21 A2992 RMK A01 T02120208  RH  097%=      5-min Rain = 0
KGO1 231522Z 14010KT 21/21 A2992 RMK A01 T02120208  RH  098%=      5-min Rain = 0
KGO1 231523Z 13011KT 21/21 A2992 RMK A01 T02110208  RH  098%=      5-min Rain = 0
KGO1 231524Z 13011KT 21/21 A2992 RMK A01 T02110208  RH  098%=      5-min Rain = 0
KGO1 231525Z 12011KT 21/21 A2992 RMK A01 T02110208  RH  098%=      5-min Rain = 0
KGO1 231526Z 12014KT 21/21 A2992 RMK A01 T02110208  RH  098%=      5-min Rain = 0
KGO1 231527Z 13013KT 21/21 A2992 RMK A01 T02110208  RH  098%=      5-min Rain = 0
KGO1 231528Z 13012KT 21/21 A2992 RMK A01 T02110208  RH  098%=      5-min Rain = 0
KGO1 231529Z 14009KT 21/21 A2992 RMK A01 T02110208  RH  098%=      5-min Rain = 0
KGO1 231530Z 15012KT 21/21 A2992 RMK A01 T02110208  RH  098%=      5-min Rain = 0
KGO1 231531Z 16012KT 21/21 A2992 RMK A01 T02100208  RH  098%=      5-min Rain = 0
KGO1 231532Z 16011KT 21/21 A2993 RMK A01 T02100208  RH  099%=      5-min Rain = 0
KGO1 231533Z 17011KT 21/21 A2993 RMK A01 T02100209  RH  099%=      5-min Rain = 0
KGO1 231534Z 17012KT 21/21 A2993 RMK A01 T02100209  RH  099%=      5-min Rain = 0
KGO1 231535Z 16013KT 21/21 A2993 RMK A01 T02100209  RH  099%=      5-min Rain = 0
KGO1 231536Z 16012KT 21/21 A2993 RMK A01 T02090209  RH  100%=      5-min Rain = 0
KGO1 231537Z 15010KT 21/21 A2993 RMK A01 T02100209  RH  100%=      5-min Rain = 0
KGO1 231538Z 15009KT 21/21 A2993 RMK A01 T02090209  RH  100%=      5-min Rain = 0
KGO1 231539Z 15009KT 21/21 A2993 RMK A01 T02090209  RH  100%=      5-min Rain = 0
KGO1 231540Z 15009KT 21/21 A2993 RMK A01 T02090209  RH  100%=      5-min Rain = 0
KGO1 231541Z 14009KT 21/21 A2992 RMK A01 T02090209  RH  100%=      5-min Rain = 0
KGO1 231542Z 14013KT 21/21 A2993 RMK A01 T02090209  RH  100%=      5-min Rain = 0
KGO1 231543Z 14013KT 21/21 A2993 RMK A01 T02080209  RH  100%=      5-min Rain = 0
KGO1 231544Z 14013KT 21/21 A2993 RMK A01 T02090209  RH  100%=      5-min Rain = 0
KGO1 231545Z 14012KT 21/21 A2993 RMK A01 T02090209  RH  100%=      5-min Rain = 0
KGO1 231546Z 14011G17KT 21/21 A2993 RMK A01 T02090209  RH  100%=      5-min Rain = 0
KGO1 231547Z 14014KT 21/21 A2993 RMK A01 T02080209  RH  100%=      5-min Rain = 0
KGO1 231548Z 14014KT 21/21 A2993 RMK A01 T02080208  RH  100%=      5-min Rain = 0
KGO1 231549Z 14012KT 21/21 A2992 RMK A01 T02080208  RH  100%=      5-min Rain = 0
KGO1 231550Z 14015KT 21/21 A2993 RMK A01 T02080208  RH  100%=      5-min Rain = 0
KGO1 231551Z 14014KT 21/21 A2992 RMK A01 T02080208  RH  100%=      5-min Rain = 0
KGO1 231552Z 14017KT 21/21 A2992 RMK A01 T02080208  RH  100%=      5-min Rain = 0
KGO1 231553Z 14014KT 21/21 A2993 RMK A01 T02080208  RH  100%=      5-min Rain = 0
KGO1 231554Z 14014KT 21/21 A2993 RMK A01 T02080209  RH  100%=      5-min Rain = 0
KGO1 231555Z 14011KT 21/21 A2992 RMK A01 T02080208  RH  100%=      5-min Rain = 0
KGO1 231556Z 14012KT 21/21 A2992 RMK A01 T02080208  RH  100%=      5-min Rain = 0
KGO1 231557Z 14011KT 21/21 A2992 RMK A01 T02090209  RH  100%=      5-min Rain = 0
KGO1 231558Z 15011KT 21/21 A2993 RMK A01 T02080209  RH  100%=      5-min Rain = 0
KGO1 231559Z 14012KT 21/21 A2992 RMK A01 T02080209  RH  100%=      5-min Rain = 0
KGO1 231600Z 14011KT 21/21 A2992 RMK A01 T02080208  RH  100%=      5-min Rain = 0
KGO1 231601Z 14011KT 21/21 A2992 RMK A01 T02080208  RH  100%=      5-min Rain = 0
KGO1 231602Z 14011KT 21/21 A2992 RMK A01 T02080208  RH  100%=      5-min Rain = 0
KGO1 231603Z 14014KT 21/21 A2993 RMK A01 T02080208  RH  100%=      5-min Rain = 0
KGO1 231604Z 13014KT 21/21 A2992 RMK A01 T02080208  RH  100%=      5-min Rain = 0
KGO1 231605Z 14013G18KT 21/21 A2992 RMK A01 T02080208  RH  100%=      5-min Rain = 0
KGO1 231606Z 13014KT 21/21 A2993 RMK A01 T02080208  RH  100%=      5-min Rain = 0
KGO1 231607Z 14015KT 21/21 A2992 RMK A01 T02070208  RH  100%=      5-min Rain = 0
KGO1 231608Z 14012KT 21/21 A2992 RMK A01 T02080208  RH  100%=      5-min Rain = 0
KGO1 231609Z 14012KT 21/21 A2992 RMK A01 T02080208  RH  100%=      5-min Rain = 0
KGO1 231610Z 13012KT 21/21 A2992 RMK A01 T02080208  RH  100%=      5-min Rain = 0
KGO1 231611Z 14012KT 21/21 A2993 RMK A01 T02080208  RH  100%=      5-min Rain = 0
KGO1 231612Z 14011KT 21/21 A2992 RMK A01 T02080208  RH  100%=      5-min Rain = 0
KGO1 231613Z 14012KT 21/21 A2993 RMK A01 T02080208  RH  100%=      5-min Rain = 0
KGO1 231614Z 14013KT 21/21 A2993 RMK A01 T02080208  RH  100%=      5-min Rain = 0
KGO1 231615Z 14013KT 21/21 A2993 RMK A01 T02070208  RH  100%=      5-min Rain = 0
KGO1 231616Z 15013KT 21/21 A2993 RMK A01 T02080208  RH  100%=      5-min Rain = 0
KGO1 231617Z 15013KT 21/21 A2993 RMK A01 T02080208  RH  100%=      5-min Rain = 0
KGO1 231618Z 14012KT 21/21 A2993 RMK A01 T02080208  RH  100%=      5-min Rain = 0
KGO1 231619Z 14012KT 21/21 A2993 RMK A01 T02080208  RH  100%=      5-min Rain = 0
KGO1 231620Z 14013KT 21/21 A2993 RMK A01 T02080208  RH  100%=      5-min Rain = 0
KGO1 231621Z 14011KT 21/21 A2992 RMK A01 T02080208  RH  100%=      5-min Rain = 0
KGO1 231622Z 14014KT 21/21 A2992 RMK A01 T02080208  RH  100%=      5-min Rain = 0
KGO1 231623Z 14014KT 21/21 A2992 RMK A01 T02080208  RH  100%=      5-min Rain = 0
KGO1 231624Z 14013KT 21/21 A2992 RMK A01 T02080208  RH  100%=      5-min Rain = 0
KGO1 231625Z 14013KT 21/21 A2992 RMK A01 T02090209  RH  100%=      5-min Rain = 0
KGO1 231626Z 14013KT 21/21 A2992 RMK A01 T02090209  RH  100%=      5-min Rain = 0
KGO1 231627Z 14013KT 21/21 A2992 RMK A01 T02080209  RH  100%=      5-min Rain = 0
KGO1 231628Z 14014G20KT 21/21 A2992 RMK A01 T02090209  RH  100%=      5-min Rain = 0
KGO1 231629Z 14014KT 21/21 A2992 RMK A01 T02090209  RH  100%=      5-min Rain = 0
KGO1 231630Z 13012KT 21/21 A2992 RMK A01 T02090209  RH  100%=      5-min Rain = 0
KGO1 231631Z 14014KT 21/21 A2992 RMK A01 T02100210  RH  100%=      5-min Rain = 0
KGO1 231632Z 13013KT 21/21 A2992 RMK A01 T02090210  RH  100%=      5-min Rain = 0
KGO1 231633Z 14013KT 21/21 A2992 RMK A01 T02100210  RH  100%=      5-min Rain = 0
KGO1 231634Z 13012KT 21/21 A2992 RMK A01 T02100210  RH  100%=      5-min Rain = 0
KGO1 231635Z 14013KT 21/21 A2992 RMK A01 T02100210  RH  100%=      5-min Rain = 0
KGO1 231636Z 14012KT 21/21 A2992 RMK A01 T02100210  RH  100%=      5-min Rain = 0
KGO1 231637Z 14013KT 21/21 A2992 RMK A01 T02100210  RH  100%=      5-min Rain = 0
KGO1 231638Z 14012KT 21/21 A2992 RMK A01 T02100210  RH  100%=      5-min Rain = 0
KGO1 231639Z 14011KT 21/21 A2992 RMK A01 T02100210  RH  100%=      5-min Rain = 0
KGO1 231640Z 14014KT 21/21 A2992 RMK A01 T02100210  RH  100%=      5-min Rain = 0
KGO1 231641Z 13013KT 21/21 A2992 RMK A01 T02100211  RH  100%=      5-min Rain = 0
KGO1 231642Z 14015KT 21/21 A2992 RMK A01 T02100210  RH  100%=      5-min Rain = 0
KGO1 231643Z 14014KT 21/21 A2992 RMK A01 T02100210  RH  100%=      5-min Rain = 0
KGO1 231644Z 14012KT 21/21 A2992 RMK A01 T02110211  RH  100%=      5-min Rain = 0
KGO1 231645Z 14011KT 21/21 A2992 RMK A01 T02100211  RH  100%=      5-min Rain = 0
KGO1 231646Z 14013KT 21/21 A2992 RMK A01 T02110211  RH  100%=      5-min Rain = 0
KGO1 231647Z 14015G23KT 21/21 A2992 RMK A01 T02100210  RH  100%=      5-min Rain = 0
KGO1 231648Z 14017KT 21/21 A2992 RMK A01 T02100211  RH  100%=      5-min Rain = 0
KGO1 231649Z 13015KT 21/21 A2992 RMK A01 T02100210  RH  100%=      5-min Rain = 0
KGO1 231650Z 14014KT 21/21 A2992 RMK A01 T02100211  RH  100%=      5-min Rain = 0
KGO1 231651Z 14015KT 21/21 A2992 RMK A01 T02110211  RH  100%=      5-min Rain = 0
KGO1 231652Z 14016KT 21/21 A2992 RMK A01 T02110211  RH  100%=      5-min Rain = 0
KGO1 231653Z 14015KT 21/21 A2992 RMK A01 T02110211  RH  100%=      5-min Rain = 0
KGO1 231654Z 14012KT 21/21 A2992 RMK A01 T02110211  RH  100%=      5-min Rain = 0
KGO1 231655Z 14012KT 21/21 A2992 RMK A01 T02110211  RH  100%=      5-min Rain = 0
KGO1 231656Z 14015KT 21/21 A2992 RMK A01 T02110212  RH  100%=      5-min Rain = 0
KGO1 231657Z 15011KT 21/21 A2992 RMK A01 T02110211  RH  100%=      5-min Rain = 0
KGO1 231658Z 15012G17KT 21/21 A2992 RMK A01 T02110211  RH  100%=      5-min Rain = 0
KGO1 231659Z 14014KT 21/21 A2992 RMK A01 T02110212  RH  100%=      5-min Rain = 0
KGO1 231700Z 14015KT 21/21 A2992 RMK A01 T02110212  RH  100%=      5-min Rain = 0
KGO1 231701Z 14015KT 21/21 A2992 RMK A01 T02110211  RH  100%=      5-min Rain = 0
KGO1 231702Z 14015KT 21/21 A2992 RMK A01 T02110211  RH  100%=      5-min Rain = 0
KGO1 231703Z 14014KT 21/21 A2992 RMK A01 T02110212  RH  100%=      5-min Rain = 0
KGO1 231704Z 14013KT 21/21 A2992 RMK A01 T02120212  RH  100%=      5-min Rain = 0
KGO1 231705Z 14011KT 21/21 A2992 RMK A01 T02120212  RH  100%=      5-min Rain = 0
KGO1 231706Z 14012KT 21/21 A2992 RMK A01 T02120212  RH  100%=      5-min Rain = 0
KGO1 231707Z 14011KT 21/21 A2992 RMK A01 T02120212  RH  100%=      5-min Rain = 0
KGO1 231708Z 14011KT 21/21 A2992 RMK A01 T02120212  RH  100%=      5-min Rain = 0
KGO1 231709Z 14012KT 21/21 A2992 RMK A01 T02120212  RH  100%=      5-min Rain = 0
KGO1 231710Z 14009KT 21/21 A2992 RMK A01 T02120212  RH  100%=      5-min Rain = 0
KGO1 231711Z 14014KT 21/21 A2992 RMK A01 T02120212  RH  100%=      5-min Rain = 0
KGO1 231712Z 14013KT 21/21 A2992 RMK A01 T02120212  RH  100%=      5-min Rain = 0
KGO1 231713Z 14016G21KT 21/21 A2992 RMK A01 T02130212  RH  099%=      5-min Rain = 0
KGO1 231714Z 13012KT 21/21 A2992 RMK A01 T02130212  RH  099%=      5-min Rain = 0
KGO1 231715Z 13016KT 21/21 A2992 RMK A01 T02130212  RH  099%=      5-min Rain = 0
KGO1 231716Z 13016KT 21/21 A2992 RMK A01 T02140212  RH  099%=      5-min Rain = 0
KGO1 231717Z 14012KT 21/21 A2992 RMK A01 T02140212  RH  099%=      5-min Rain = 0
KGO1 231718Z 14013G18KT 21/21 A2992 RMK A01 T02140212  RH  099%=      5-min Rain = 0
KGO1 231719Z 13016G21KT 21/21 A2991 RMK A01 T02140212  RH  099%=      5-min Rain = 0
KGO1 231720Z 14017KT 21/21 A2992 RMK A01 T02140212  RH  098%=      5-min Rain = 0
KGO1 231721Z 14015KT 21/21 A2992 RMK A01 T02140211  RH  098%=      5-min Rain = 0
KGO1 231722Z 13016KT 21/21 A2992 RMK A01 T02140211  RH  098%=      5-min Rain = 0
KGO1 231723Z 14015KT 21/21 A2992 RMK A01 T02140211  RH  098%=      5-min Rain = 0
KGO1 231724Z 15016KT 21/21 A2991 RMK A01 T02140211  RH  098%=      5-min Rain = 0
KGO1 231725Z 14015KT 21/21 A2991 RMK A01 T02140211  RH  098%=      5-min Rain = 0
KGO1 231726Z 14015G20KT 21/21 A2991 RMK A01 T02140211  RH  098%=      5-min Rain = 0
KGO1 231727Z 14015KT 21/21 A2991 RMK A01 T02140211  RH  098%=      5-min Rain = 0
KGO1 231728Z 14013KT 21/21 A2992 RMK A01 T02140211  RH  098%=      5-min Rain = 0
KGO1 231729Z 14014KT 21/21 A2992 RMK A01 T02140212  RH  098%=      5-min Rain = 0
KGO1 231730Z 14014G20KT 22/21 A2992 RMK A01 T02150212  RH  098%=      5-min Rain = 0
KGO1 231731Z 15016KT 22/21 A2992 RMK A01 T02150211  RH  098%=      5-min Rain = 0
KGO1 231732Z 15013KT 22/21 A2992 RMK A01 T02150212  RH  098%=      5-min Rain = 0
KGO1 231733Z 15017KT 22/21 A2992 RMK A01 T02150211  RH  098%=      5-min Rain = 0
KGO1 231734Z 14014KT 22/21 A2992 RMK A01 T02150211  RH  097%=      5-min Rain = 0
KGO1 231735Z 15013G18KT 22/21 A2992 RMK A01 T02150211  RH  098%=      5-min Rain = 0
KGO1 231736Z 15014KT 22/21 A2992 RMK A01 T02150211  RH  098%=      5-min Rain = 0
KGO1 231737Z 14015KT 22/21 A2992 RMK A01 T02150211  RH  098%=      5-min Rain = 0
KGO1 231738Z 14017KT 22/21 A2992 RMK A01 T02150211  RH  097%=      5-min Rain = 0
KGO1 231739Z 15015KT 22/21 A2992 RMK A01 T02160211  RH  097%=      5-min Rain = 0
KGO1 231740Z 16013KT 22/21 A2992 RMK A01 T02160211  RH  097%=      5-min Rain = 0
KGO1 231741Z 16012KT 22/21 A2992 RMK A01 T02160211  RH  096%=      5-min Rain = 0
KGO1 231742Z 15012KT 22/21 A2992 RMK A01 T02160211  RH  096%=      5-min Rain = 0
KGO1 231743Z 15018KT 22/21 A2992 RMK A01 T02160210  RH  096%=      5-min Rain = 0
KGO1 231744Z 16014KT 22/21 A2992 RMK A01 T02160210  RH  096%=      5-min Rain = 0
KGO1 231745Z 16013KT 22/21 A2992 RMK A01 T02160210  RH  096%=      5-min Rain = 0
KGO1 231746Z 14016KT 22/21 A2992 RMK A01 T02160210  RH  096%=      5-min Rain = 0
KGO1 231747Z 15014KT 22/21 A2992 RMK A01 T02160210  RH  096%=      5-min Rain = 0
KGO1 231748Z 15013KT 22/21 A2992 RMK A01 T02160210  RH  096%=      5-min Rain = 0
KGO1 231749Z 15013KT 22/21 A2992 RMK A01 T02160211  RH  096%=      5-min Rain = 0
KGO1 231750Z 15014KT 22/21 A2992 RMK A01 T02160211  RH  096%=      5-min Rain = 0
KGO1 231751Z 15017KT 22/21 A2992 RMK A01 T02160210  RH  096%=      5-min Rain = 0
KGO1 231752Z 15015KT 22/21 A2992 RMK A01 T02170210  RH  096%=      5-min Rain = 0
KGO1 231753Z 15015KT 22/21 A2992 RMK A01 T02170211  RH  096%=      5-min Rain = 0
KGO1 231754Z 16013KT 22/21 A2992 RMK A01 T02180211  RH  096%=      5-min Rain = 0
KGO1 231755Z 15015KT 22/21 A2992 RMK A01 T02190211  RH  096%=      5-min Rain = 0
KGO1 231756Z 15013KT 22/21 A2992 RMK A01 T02200212  RH  095%=      5-min Rain = 0
KGO1 231757Z 15013KT 22/21 A2992 RMK A01 T02210213  RH  095%=      5-min Rain = 0
KGO1 231758Z 15014KT 22/21 A2992 RMK A01 T02230212  RH  094%=      5-min Rain = 0
KGO1 231759Z 15016KT 22/21 A2992 RMK A01 T02240212  RH  093%=      5-min Rain = 0
KGO1 231800Z 15015G21KT 22/21 A2991 RMK A01 T02240212  RH  093%=      5-min Rain = 0
KGO1 231801Z 15016KT 23/21 A2991 RMK A01 T02250211  RH  092%=      5-min Rain = 0
KGO1 231802Z 15016KT 23/21 A2991 RMK A01 T02250211  RH  092%=      5-min Rain = 0
KGO1 231803Z 14016KT 22/21 A2991 RMK A01 T02240211  RH  092%=      5-min Rain = 0
KGO1 231804Z 14018KT 22/21 A2991 RMK A01 T02240211  RH  092%=      5-min Rain = 0
KGO1 231805Z 14018KT 23/21 A2991 RMK A01 T02250211  RH  092%=      5-min Rain = 0
KGO1 231806Z 14015KT 22/21 A2991 RMK A01 T02240211  RH  092%=      5-min Rain = 0
KGO1 231807Z 14014KT 22/21 A2991 RMK A01 T02240211  RH  092%=      5-min Rain = 0
KGO1 231808Z 14016KT 23/21 A2991 RMK A01 T02250211  RH  092%=      5-min Rain = 0
KGO1 231809Z 15014KT 23/21 A2991 RMK A01 T02260212  RH  092%=      5-min Rain = 0
KGO1 231810Z 15015KT 23/21 A2991 RMK A01 T02260211  RH  091%=      5-min Rain = 0
KGO1 231811Z 15014KT 23/21 A2991 RMK A01 T02260211  RH  091%=      5-min Rain = 0
KGO1 231812Z 15014KT 23/21 A2991 RMK A01 T02250212  RH  092%=      5-min Rain = 0
KGO1 231813Z 14015G21KT 23/21 A2991 RMK A01 T02260213  RH  092%=      5-min Rain = 0
KGO1 231814Z 14017KT 23/21 A2991 RMK A01 T02260211  RH  091%=      5-min Rain = 0
KGO1 231815Z 14015KT 23/21 A2991 RMK A01 T02270211  RH  091%=      5-min Rain = 0
KGO1 231816Z 15015KT 23/21 A2991 RMK A01 T02260212  RH  092%=      5-min Rain = 0
KGO1 231817Z 14015KT 23/21 A2991 RMK A01 T02270213  RH  092%=      5-min Rain = 0
KGO1 231818Z 14017G22KT 23/21 A2991 RMK A01 T02280212  RH  091%=      5-min Rain = 0
KGO1 231819Z 14017KT 23/21 A2991 RMK A01 T02280211  RH  090%=      5-min Rain = 0
KGO1 231820Z 14014G19KT 23/21 A2991 RMK A01 T02280212  RH  090%=      5-min Rain = 0
KGO1 231821Z 14018KT 23/21 A2991 RMK A01 T02290212  RH  090%=      5-min Rain = 0
KGO1 231822Z 14018KT 23/21 A2991 RMK A01 T02290211  RH  090%=      5-min Rain = 0
KGO1 231823Z 14022KT 23/21 A2991 RMK A01 T02290211  RH  090%=      5-min Rain = 0
KGO1 231824Z 14020KT 23/21 A2991 RMK A01 T02290211  RH  089%=      5-min Rain = 0
KGO1 231825Z 14019G24KT 23/21 A2991 RMK A01 T02300213  RH  090%=      5-min Rain = 0
KGO1 231826Z 14019KT 23/21 A299 RMK A01 T02320213  RH  089%=      5-min Rain = 0
KGO1 231827Z 14020KT 23/21 A2991 RMK A01 T02330213  RH  088%=      5-min Rain = 0
KGO1 231828Z 14017G22KT 23/21 A2991 RMK A01 T02330212  RH  088%=      5-min Rain = 0
KGO1 231829Z 14017G22KT 23/21 A299 RMK A01 T02320212  RH  089%=      5-min Rain = 0
KGO1 231830Z 14019KT 23/21 A299 RMK A01 T02310211  RH  088%=      5-min Rain = 0
KGO1 231831Z 14019KT 23/21 A299 RMK A01 T02300211  RH  089%=      5-min Rain = 0
KGO1 231832Z 14017KT 23/21 A299 RMK A01 T02320214  RH  090%=      5-min Rain = 0
KGO1 231833Z 15018G23KT 24/21 A299 RMK A01 T02350214  RH  088%=      5-min Rain = 0
KGO1 231834Z 14021G26KT 24/21 A299 RMK A01 T02370214  RH  087%=      5-min Rain = 0
KGO1 231835Z 14019KT 24/21 A299 RMK A01 T02370213  RH  087%=      5-min Rain = 0
KGO1 231836Z 14020G25KT 24/21 A299 RMK A01 T02360212  RH  086%=      5-min Rain = 0
KGO1 231837Z 13020KT 24/21 A299 RMK A01 T02350211  RH  087%=      5-min Rain = 0
KGO1 231838Z 14016KT 23/21 A299 RMK A01 T02340212  RH  087%=      5-min Rain = 0
KGO1 231839Z 14020G25KT 23/21 A299 RMK A01 T02330212  RH  088%=      5-min Rain = 0
KGO1 231840Z 14020KT 23/21 A299 RMK A01 T02340212  RH  088%=      5-min Rain = 0
KGO1 231841Z 14017G22KT 23/21 A299 RMK A01 T02330212  RH  088%=      5-min Rain = 0
KGO1 231842Z 13019KT 23/21 A299 RMK A01 T02330212  RH  088%=      5-min Rain = 0
KGO1 231843Z 14018G24KT 23/21 A299 RMK A01 T02330211  RH  088%=      5-min Rain = 0
KGO1 231844Z 13019G24KT 23/21 A299 RMK A01 T02320211  RH  088%=      5-min Rain = 0
KGO1 231845Z 14022KT 23/21 A299 RMK A01 T02310210  RH  088%=      5-min Rain = 0
KGO1 231846Z 14020KT 23/21 A299 RMK A01 T02300210  RH  089%=      5-min Rain = 0
KGO1 231847Z 14017KT 23/21 A299 RMK A01 T02300211  RH  089%=      5-min Rain = 0
KGO1 231848Z 14019KT 23/21 A299 RMK A01 T02300211  RH  089%=      5-min Rain = 0
KGO1 231849Z 14019G24KT 23/21 A299 RMK A01 T02310211  RH  088%=      5-min Rain = 0
KGO1 231850Z 14021G26KT 23/21 A299 RMK A01 T02320210  RH  087%=      5-min Rain = 0
KGO1 231851Z 15019KT 23/21 A2989 RMK A01 T02330210  RH  087%=      5-min Rain = 0
KGO1 231852Z 14020G25KT 24/21 A299 RMK A01 T02350211  RH  087%=      5-min Rain = 0
KGO1 231853Z 14022KT 24/21 A2989 RMK A01 T02360210  RH  085%=      5-min Rain = 0
KGO1 231854Z 14024G29KT 24/21 A2989 RMK A01 T02360210  RH  085%=      5-min Rain = 0
KGO1 231855Z 14019KT 24/21 A2989 RMK A01 T02370210  RH  085%=      5-min Rain = 0
KGO1 231856Z 14018KT 24/21 A2989 RMK A01 T02380212  RH  085%=      5-min Rain = 0
KGO1 231857Z 14024KT 24/21 A2989 RMK A01 T02390211  RH  084%=      5-min Rain = 0
KGO1 231858Z 14023KT 24/21 A2989 RMK A01 T02400211  RH  084%=      5-min Rain = 0
KGO1 231859Z 14021KT 24/21 A2989 RMK A01 T02410213  RH  084%=      5-min Rain = 0
KGO1 231900Z 13020KT 24/21 A2989 RMK A01 T02420211  RH  083%=      5-min Rain = 0
KGO1 231901Z 14020KT 24/21 A2989 RMK A01 T02410213  RH  084%=      5-min Rain = 0
KGO1 231902Z 14021KT 24/21 A2989 RMK A01 T02410212  RH  084%=      5-min Rain = 0
KGO1 231903Z 14021KT 24/21 A2989 RMK A01 T02400212  RH  084%=      5-min Rain = 0
KGO1 231904Z 15022KT 24/21 A2989 RMK A01 T02380210  RH  084%=      5-min Rain = 0
KGO1 231905Z 15017KT 24/21 A2989 RMK A01 T02360210  RH  085%=      5-min Rain = 0
KGO1 231906Z 14018KT 24/21 A2989 RMK A01 T02360211  RH  086%=      5-min Rain = 0
KGO1 231907Z 15020G25KT 24/21 A2989 RMK A01 T02350209  RH  086%=      5-min Rain = 0
KGO1 231908Z 15017KT 23/21 A2989 RMK A01 T02340209  RH  086%=      5-min Rain = 0
KGO1 231909Z 15024KT 24/21 A2989 RMK A01 T02350210  RH  086%=      5-min Rain = 0
KGO1 231910Z 15021G26KT 24/21 A2989 RMK A01 T02360209  RH  085%=      5-min Rain = 0
KGO1 231911Z 15017KT 24/21 A2989 RMK A01 T02370211  RH  085%=      5-min Rain = 0
KGO1 231912Z 15015KT 24/21 A2989 RMK A01 T02400213  RH  085%=      5-min Rain = 0
KGO1 231913Z 14015G20KT 24/21 A2989 RMK A01 T02420213  RH  084%=      5-min Rain = 0
KGO1 231914Z 14016KT 24/21 A2988 RMK A01 T02420213  RH  083%=      5-min Rain = 0
KGO1 231915Z 14019G24KT 24/21 A2988 RMK A01 T02410211  RH  084%=      5-min Rain = 0
KGO1 231916Z 14020G25KT 24/21 A2988 RMK A01 T02390211  RH  084%=      5-min Rain = 0
KGO1 231917Z 14022KT 24/21 A2988 RMK A01 T02390210  RH  084%=      5-min Rain = 0
KGO1 231918Z 15022KT 24/21 A2988 RMK A01 T02380209  RH  084%=      5-min Rain = 0
KGO1 231919Z 14021G26KT 24/21 A2988 RMK A01 T02370210  RH  085%=      5-min Rain = 0
KGO1 231920Z 14020KT 24/21 A2988 RMK A01 T02370210  RH  085%=      5-min Rain = 0
KGO1 231921Z 14019G25KT 24/21 A2988 RMK A01 T02370211  RH  085%=      5-min Rain = 0
KGO1 231922Z 14022G27KT 24/21 A2988 RMK A01 T02370210  RH  085%=      5-min Rain = 0
KGO1 231923Z 14020G25KT 24/21 A2988 RMK A01 T02370210  RH  085%=      5-min Rain = 0
KGO1 231924Z 14021G27KT 24/21 A2988 RMK A01 T02380210  RH  085%=      5-min Rain = 0
KGO1 231925Z 14022KT 24/21 A2988 RMK A01 T02380210  RH  084%=      5-min Rain = 0
KGO1 231926Z 14022KT 24/21 A2988 RMK A01 T02370210  RH  084%=      5-min Rain = 0
KGO1 231927Z 14022G29KT 24/21 A2988 RMK A01 T02370209  RH  085%=      5-min Rain = 0
KGO1 231928Z 14019KT 24/21 A2988 RMK A01 T02360210  RH  085%=      5-min Rain = 0
KGO1 231929Z 14022G27KT 24/21 A2988 RMK A01 T02370210  RH  085%=      5-min Rain = 0
KGO1 231930Z 15021KT 24/21 A2988 RMK A01 T02380210  RH  084%=      5-min Rain = 0
KGO1 231931Z 14021KT 24/21 A2988 RMK A01 T02390211  RH  084%=      5-min Rain = 0
KGO1 231932Z 13019KT 24/21 A2988 RMK A01 T02390211  RH  084%=      5-min Rain = 0
KGO1 231933Z 14020G26KT 24/21 A2988 RMK A01 T02380210  RH  084%=      5-min Rain = 0
KGO1 231934Z 14018KT 24/21 A2988 RMK A01 T02380211  RH  085%=      5-min Rain = 0
KGO1 231935Z 14020KT 24/21 A2987 RMK A01 T02380211  RH  085%=      5-min Rain = 0
KGO1 231936Z 14020KT 24/21 A2987 RMK A01 T02380211  RH  085%=      5-min Rain = 0
KGO1 231937Z 14020KT 24/21 A2987 RMK A01 T02390211  RH  084%=      5-min Rain = 0
KGO1 231938Z 14018G23KT 24/21 A2987 RMK A01 T02400211  RH  084%=      5-min Rain = 0
KGO1 231939Z 14018KT 24/21 A2987 RMK A01 T02400212  RH  084%=      5-min Rain = 0
KGO1 231940Z 15018KT 24/21 A2987 RMK A01 T02400212  RH  084%=      5-min Rain = 0
KGO1 231941Z 14018KT 24/21 A2987 RMK A01 T02400212  RH  084%=      5-min Rain = 0
KGO1 231942Z 14020G25KT 24/21 A2987 RMK A01 T02400211  RH  084%=      5-min Rain = 0
KGO1 231943Z 13018G23KT 24/21 A2988 RMK A01 T02380210  RH  084%=      5-min Rain = 0
KGO1 231944Z 14020G27KT 24/21 A2987 RMK A01 T02370210  RH  085%=      5-min Rain = 0
KGO1 231945Z 14025G30KT 24/21 A2987 RMK A01 T02360209  RH  084%=      5-min Rain = 0
KGO1 231946Z 16020G25KT 24/21 A2987 RMK A01 T02360208  RH  084%=      5-min Rain = 0
KGO1 231947Z 14017KT 24/21 A2987 RMK A01 T02390211  RH  084%=      5-min Rain = 0
KGO1 231948Z 15021KT 24/21 A2987 RMK A01 T02410211  RH  084%=      5-min Rain = 0
KGO1 231949Z 14021G26KT 24/21 A2987 RMK A01 T02420211  RH  083%=      5-min Rain = 0
KGO1 231950Z 14024KT 24/21 A2987 RMK A01 T02430211  RH  082%=      5-min Rain = 0
KGO1 231951Z 14022KT 24/21 A2987 RMK A01 T02440211  RH  082%=      5-min Rain = 0
KGO1 231952Z 14019KT 24/21 A2987 RMK A01 T02440211  RH  082%=      5-min Rain = 0
KGO1 231953Z 14019G26KT 24/21 A2987 RMK A01 T02440210  RH  082%=      5-min Rain = 0
KGO1 231954Z 13020G27KT 24/21 A2987 RMK A01 T02430211  RH  083%=      5-min Rain = 0
KGO1 231955Z 14024KT 24/21 A2987 RMK A01 T02430210  RH  082%=      5-min Rain = 0
KGO1 231956Z 13019KT 24/21 A2987 RMK A01 T02420211  RH  083%=      5-min Rain = 0
KGO1 231957Z 14018G24KT 24/21 A2987 RMK A01 T02430211  RH  083%=      5-min Rain = 0
KGO1 231958Z 13023G28KT 24/21 A2987 RMK A01 T02430210  RH  082%=      5-min Rain = 0
KGO1 231959Z 14021G27KT 24/21 A2987 RMK A01 T02430209  RH  081%=      5-min Rain = 0
KGO1 232000Z 14023G28KT 24/21 A2987 RMK A01 T02440210  RH  081%=      5-min Rain = 0
KGO1 232001Z 13020G25KT 25/21 A2987 RMK A01 T02450209  RH  081%=      5-min Rain = 0
KGO1 232002Z 14020G26KT 25/21 A2987 RMK A01 T02460211  RH  081%=      5-min Rain = 0
KGO1 232003Z 14020KT 25/21 A2987 RMK A01 T02470211  RH  080%=      5-min Rain = 0
KGO1 232004Z 15018G24KT 25/21 A2987 RMK A01 T02480212  RH  080%=      5-min Rain = 0
KGO1 232005Z 15021G27KT 25/21 A2987 RMK A01 T02490211  RH  079%=      5-min Rain = 0
KGO1 232006Z 15020KT 25/21 A2987 RMK A01 T02480210  RH  080%=      5-min Rain = 0
KGO1 232007Z 14018G23KT 25/21 A2987 RMK A01 T02470211  RH  080%=      5-min Rain = 0
KGO1 232008Z 13020KT 25/21 A2987 RMK A01 T02470210  RH  080%=      5-min Rain = 0
KGO1 232009Z 13019KT 25/21 A2987 RMK A01 T02470210  RH  080%=      5-min Rain = 0
KGO1 232010Z 14017G22KT 25/21 A2987 RMK A01 T02460210  RH  080%=      5-min Rain = 0
KGO1 232011Z 16019KT 25/21 A2987 RMK A01 T02460210  RH  080%=      5-min Rain = 0
KGO1 232012Z 15014KT 25/21 A2987 RMK A01 T02460210  RH  081%=      5-min Rain = 0
KGO1 232013Z 13017G25KT 25/21 A2987 RMK A01 T02470211  RH  081%=      5-min Rain = 0
KGO1 232014Z 14021G26KT 25/21 A2987 RMK A01 T02480210  RH  079%=      5-min Rain = 0
KGO1 232015Z 14017KT 25/21 A2987 RMK A01 T02480210  RH  080%=      5-min Rain = 0
KGO1 232016Z 15019G24KT 25/21 A2987 RMK A01 T02480210  RH  080%=      5-min Rain = 0
KGO1 232017Z 14019KT 25/21 A2987 RMK A01 T02470210  RH  080%=      5-min Rain = 0
KGO1 232018Z 14019KT 25/21 A2987 RMK A01 T02470210  RH  080%=      5-min Rain = 0
KGO1 232019Z 14018KT 25/21 A2987 RMK A01 T02460210  RH  080%=      5-min Rain = 0
KGO1 232020Z 14022KT 25/21 A2987 RMK A01 T02470210  RH  080%=      5-min Rain = 0
KGO1 232021Z 14019KT 25/21 A2987 RMK A01 T02470210  RH  080%=      5-min Rain = 0
KGO1 232022Z 14018G23KT 25/21 A2987 RMK A01 T02470210  RH  080%=      5-min Rain = 0
KGO1 232023Z 14020KT 25/21 A2987 RMK A01 T02470209  RH  080%=      5-min Rain = 0
KGO1 232024Z 14021KT 25/21 A2987 RMK A01 T02470209  RH  079%=      5-min Rain = 0
KGO1 232025Z 15021KT 25/21 A2987 RMK A01 T02470209  RH  079%=      5-min Rain = 0
KGO1 232026Z 15021KT 25/21 A2987 RMK A01 T02470209  RH  079%=      5-min Rain = 0
KGO1 232027Z 15020KT 25/21 A2987 RMK A01 T02470209  RH  080%=      5-min Rain = 0
KGO1 232028Z 15018G23KT 25/21 A2987 RMK A01 T02470210  RH  080%=      5-min Rain = 0
KGO1 232029Z 14021G27KT 25/21 A2987 RMK A01 T02490211  RH  079%=      5-min Rain = 0
KGO1 232030Z 14021KT 25/21 A2987 RMK A01 T02500210  RH  078%=      5-min Rain = 0
KGO1 232031Z 15017KT 25/21 A2987 RMK A01 T02510210  RH  078%=      5-min Rain = 0
KGO1 232032Z 15018KT 25/21 A2987 RMK A01 T02500210  RH  078%=      5-min Rain = 0
KGO1 232033Z 13019G25KT 25/21 A2987 RMK A01 T02500210  RH  078%=      5-min Rain = 0
KGO1 232034Z 14021KT 25/21 A2987 RMK A01 T02490209  RH  079%=      5-min Rain = 0
KGO1 232035Z 14020KT 25/21 A2987 RMK A01 T02480209  RH  079%=      5-min Rain = 0
KGO1 232036Z 14020KT 25/21 A2987 RMK A01 T02470208  RH  079%=      5-min Rain = 0
KGO1 232037Z 13022KT 25/21 A2987 RMK A01 T02460208  RH  080%=      5-min Rain = 0
KGO1 232038Z 14019KT 25/21 A2987 RMK A01 T02450208  RH  080%=      5-min Rain = 0
KGO1 232039Z 13021G26KT 24/21 A2987 RMK A01 T02440208  RH  080%=      5-min Rain = 0
KGO1 232040Z 13022KT 24/21 A2987 RMK A01 T02440208  RH  080%=      5-min Rain = 0
KGO1 232041Z 14017G22KT 24/21 A2987 RMK A01 T02440208  RH  080%=      5-min Rain = 0
KGO1 232042Z 14020KT 25/21 A2987 RMK A01 T02460210  RH  080%=      5-min Rain = 0
KGO1 232043Z 13021KT 25/21 A2987 RMK A01 T02470209  RH  079%=      5-min Rain = 0
KGO1 232044Z 14018G23KT 25/21 A2987 RMK A01 T02480209  RH  079%=      5-min Rain = 0
KGO1 232045Z 14023KT 25/21 A2987 RMK A01 T02490209  RH  079%=      5-min Rain = 0
KGO1 232046Z 14022G27KT 25/21 A2987 RMK A01 T02490208  RH  078%=      5-min Rain = 0
KGO1 232047Z 15022KT 25/21 A2987 RMK A01 T02480209  RH  078%=      5-min Rain = 0
KGO1 232048Z 14020G26KT 25/21 A2987 RMK A01 T02480209  RH  079%=      5-min Rain = 0
KGO1 232049Z 14022KT 25/21 A2987 RMK A01 T02470207  RH  078%=      5-min Rain = 0
KGO1 232050Z 14020KT 25/21 A2987 RMK A01 T02470207  RH  079%=      5-min Rain = 0
KGO1 232051Z 14020KT 25/21 A2987 RMK A01 T02470208  RH  079%=      5-min Rain = 0
KGO1 232052Z 14020G26KT 25/21 A2987 RMK A01 T02470208  RH  079%=      5-min Rain = 0
KGO1 232053Z 14025G30KT 25/21 A2987 RMK A01 T02480208  RH  078%=      5-min Rain = 0
KGO1 232054Z 14020KT 25/21 A2987 RMK A01 T02480208  RH  078%=      5-min Rain = 0
KGO1 232055Z 13018KT 25/21 A2987 RMK A01 T02480208  RH  078%=      5-min Rain = 0
KGO1 232056Z 13018KT 25/21 A2986 RMK A01 T02490209  RH  078%=      5-min Rain = 0
KGO1 232057Z 14020KT 25/21 A2986 RMK A01 T02500210  RH  078%=      5-min Rain = 0
KGO1 232058Z 13021KT 25/21 A2986 RMK A01 T02500209  RH  078%=      5-min Rain = 0
KGO1 232059Z 14022KT 25/21 A2986 RMK A01 T02510208  RH  077%=      5-min Rain = 0
KGO1 232100Z 14019G24KT 25/21 A2986 RMK A01 T02510209  RH  077%=      5-min Rain = 0
KGO1 232101Z 14020G25KT 25/21 A2986 RMK A01 T02520210  RH  078%=      5-min Rain = 0
KGO1 232102Z 14021G26KT 25/21 A2986 RMK A01 T02530210  RH  077%=      5-min Rain = 0
KGO1 232103Z 14023KT 25/21 A2986 RMK A01 T02520209  RH  077%=      5-min Rain = 0
KGO1 232104Z 13021G26KT 25/21 A2986 RMK A01 T02510209  RH  077%=      5-min Rain = 0
KGO1 232105Z 14022KT 25/21 A2986 RMK A01 T02500208  RH  077%=      5-min Rain = 0
KGO1 232106Z 14017G24KT 25/21 A2986 RMK A01 T02490208  RH  078%=      5-min Rain = 0
KGO1 232107Z 14025KT 25/21 A2986 RMK A01 T02500209  RH  078%=      5-min Rain = 0
KGO1 232108Z 13026G31KT 25/21 A2986 RMK A01 T02500208  RH  077%=      5-min Rain = 0
KGO1 232109Z 13023KT 25/21 A2986 RMK A01 T02500208  RH  078%=      5-min Rain = 0
KGO1 232110Z 14024KT 25/21 A2985 RMK A01 T02510209  RH  077%=      5-min Rain = 0
KGO1 232111Z 13020KT 25/21 A2985 RMK A01 T02510209  RH  077%=      5-min Rain = 0
KGO1 232112Z 14024G29KT 25/21 A2985 RMK A01 T02520209  RH  077%=      5-min Rain = 0
KGO1 232113Z 14022KT 25/21 A2985 RMK A01 T02520209  RH  077%=      5-min Rain = 0
KGO1 232114Z 14020KT 25/21 A2985 RMK A01 T02530210  RH  077%=      5-min Rain = 0
KGO1 232115Z 15020KT 25/21 A2985 RMK A01 T02530211  RH  077%=      5-min Rain = 0
KGO1 232116Z 14020KT 25/21 A2985 RMK A01 T02540211  RH  077%=      5-min Rain = 0
KGO1 232117Z 14021KT 25/21 A2985 RMK A01 T02540210  RH  076%=      5-min Rain = 0
KGO1 232118Z 13021G27KT 25/21 A2985 RMK A01 T02540210  RH  076%=      5-min Rain = 0
KGO1 232119Z 14020G25KT 25/21 A2984 RMK A01 T02540210  RH  077%=      5-min Rain = 0
KGO1 232120Z 14018KT 26/21 A2984 RMK A01 T02550210  RH  076%=      5-min Rain = 0
KGO1 232121Z 14020G26KT 26/21 A2984 RMK A01 T02560210  RH  076%=      5-min Rain = 0
KGO1 232122Z 14024G29KT 26/21 A2984 RMK A01 T02570209  RH  075%=      5-min Rain = 0
KGO1 232123Z 14023KT 26/21 A2984 RMK A01 T02570210  RH  075%=      5-min Rain = 0
KGO1 232124Z 14024KT 26/21 A2984 RMK A01 T02580211  RH  075%=      5-min Rain = 0
KGO1 232125Z 13022G30KT 26/21 A2984 RMK A01 T02590211  RH  075%=      5-min Rain = 0
KGO1 232126Z 14023G28KT 26/21 A2984 RMK A01 T02600210  RH  074%=      5-min Rain = 0
KGO1 232127Z 13023KT 26/21 A2984 RMK A01 T02600209  RH  073%=      5-min Rain = 0
KGO1 232128Z 14022KT 26/21 A2984 RMK A01 T02600210  RH  074%=      5-min Rain = 0
KGO1 232129Z 14021G26KT 26/21 A2983 RMK A01 T02600210  RH  074%=      5-min Rain = 0
KGO1 232130Z 14022G27KT 26/21 A2983 RMK A01 T02600208  RH  073%=      5-min Rain = 0
KGO1 232131Z 14021G28KT 26/21 A2983 RMK A01 T02600207  RH  073%=      5-min Rain = 0
KGO1 232132Z 15021G27KT 26/21 A2983 RMK A01 T02640210  RH  072%=      5-min Rain = 0
KGO1 232133Z 15021KT 27/21 A2983 RMK A01 T02680210  RH  070%=      5-min Rain = 0
KGO1 232134Z 14022G28KT 27/21 A2983 RMK A01 T02690209  RH  070%=      5-min Rain = 0
KGO1 232135Z 14024G30KT 27/21 A2983 RMK A01 T02680208  RH  070%=      5-min Rain = 0
KGO1 232136Z 14020G26KT 27/21 A2983 RMK A01 T02670207  RH  070%=      5-min Rain = 0
KGO1 232137Z 14019KT 27/21 A2983 RMK A01 T02660208  RH  071%=      5-min Rain = 0
KGO1 232138Z 14020G31KT 27/21 A2983 RMK A01 T02660209  RH  071%=      5-min Rain = 0
KGO1 232139Z 14024G32KT 27/21 A2983 RMK A01 T02670207  RH  069%=      5-min Rain = 0
KGO1 232140Z 14025G31KT 27/21 A2982 RMK A01 T02680207  RH  069%=      5-min Rain = 0
KGO1 232141Z 15025G30KT 27/21 A2982 RMK A01 T02690208  RH  069%=      5-min Rain = 0
KGO1 232142Z 14022G27KT 27/21 A2982 RMK A01 T02710210  RH  069%=      5-min Rain = 0
KGO1 232143Z 15024G30KT 27/21 A2982 RMK A01 T02710209  RH  069%=      5-min Rain = 0
KGO1 232144Z 15026G33KT 27/21 A2982 RMK A01 T02700208  RH  069%=      5-min Rain = 0
KGO1 232145Z 15025G32KT 27/21 A2982 RMK A01 T02690207  RH  069%=      5-min Rain = 0
KGO1 232146Z 15025KT 27/21 A2982 RMK A01 T02700206  RH  068%=      5-min Rain = 0
KGO1 232147Z 15028KT 27/21 A2982 RMK A01 T02690206  RH  068%=      5-min Rain = 0
KGO1 232148Z 15022G27KT 27/21 A2982 RMK A01 T02690207  RH  069%=      5-min Rain = 0
KGO1 232149Z 14025G32KT 27/21 A2982 RMK A01 T02710210  RH  069%=      5-min Rain = 0
KGO1 232150Z 14027KT 27/21 A2982 RMK A01 T02730208  RH  068%=      5-min Rain = 0
KGO1 232151Z 15025G30KT 27/21 A2982 RMK A01 T02730208  RH  068%=      5-min Rain = 0
KGO1 232152Z 14027G34KT 27/21 A2982 RMK A01 T02720208  RH  068%=      5-min Rain = 0
KGO1 232153Z 14025G30KT 27/21 A2982 RMK A01 T02710208  RH  068%=      5-min Rain = 0
KGO1 232154Z 15024KT 27/21 A2982 RMK A01 T02700207  RH  068%=      5-min Rain = 0
KGO1 232155Z 15024G29KT 27/21 A2981 RMK A01 T02710209  RH  069%=      5-min Rain = 0
KGO1 232156Z 14028KT 27/21 A2981 RMK A01 T02690206  RH  068%=      5-min Rain = 0
KGO1 232157Z 14024KT 27/21 A2981 RMK A01 T02670206  RH  069%=      5-min Rain = 0
KGO1 232158Z 14026G35KT 27/21 A2982 RMK A01 T02650205  RH  070%=      5-min Rain = 0
KGO1 232159Z 14027G34KT 26/20 A2982 RMK A01 T02640204  RH  070%=      5-min Rain = 0
KGO1 232200Z 14028G33KT 26/20 A2981 RMK A01 T02610203  RH  070%=      5-min Rain = 0
KGO1 232201Z 14025G35KT 26/20 A2981 RMK A01 T02600203  RH  071%=      5-min Rain = 0
KGO1 232202Z 14025G32KT 26/20 A2981 RMK A01 T02590204  RH  072%=      5-min Rain = 0
KGO1 232203Z 14028KT 26/20 A2981 RMK A01 T02590204  RH  071%=      5-min Rain = 0
KGO1 232204Z 14026KT 26/20 A2981 RMK A01 T02600204  RH  071%=      5-min Rain = 0
KGO1 232205Z 14028KT 26/20 A2981 RMK A01 T02590204  RH  072%=      5-min Rain = 0
KGO1 232206Z 14023G31KT 26/20 A2981 RMK A01 T02600204  RH  071%=      5-min Rain = 0
KGO1 232207Z 15023KT 26/21 A2981 RMK A01 T02610206  RH  071%=      5-min Rain = 0
KGO1 232208Z 15026G34KT 26/21 A2981 RMK A01 T02640206  RH  070%=      5-min Rain = 0
KGO1 232209Z 15027G38KT 27/21 A2981 RMK A01 T02660206  RH  070%=      5-min Rain = 0
KGO1 232210Z 15026G31KT 27/20 A2981 RMK A01 T02650204  RH  069%=      5-min Rain = 0
KGO1 232211Z 13023G31KT 27/21 A2981 RMK A01 T02650206  RH  070%=      5-min Rain = 0
KGO1 232212Z 14023G29KT 27/21 A2981 RMK A01 T02650206  RH  070%=      5-min Rain = 0
KGO1 232213Z 14023KT 27/21 A2981 RMK A01 T02660206  RH  069%=      5-min Rain = 0
KGO1 232214Z 14022KT 27/21 A298 RMK A01 T02670207  RH  070%=      5-min Rain = 0
KGO1 232215Z 14019G24KT 27/21 A2981 RMK A01 T02680207  RH  069%=      5-min Rain = 0
KGO1 232216Z 15022G30KT 27/21 A2981 RMK A01 T02690207  RH  069%=      5-min Rain = 0
KGO1 232217Z 15023KT 27/20 A298 RMK A01 T02700204  RH  067%=      5-min Rain = 0
KGO1 232218Z 15024G31KT 27/20 A298 RMK A01 T02710204  RH  067%=      5-min Rain = 0
KGO1 232219Z 16029G34KT 27/20 A298 RMK A01 T02710203  RH  066%=      5-min Rain = 0
KGO1 232220Z 15027G33KT 27/20 A298 RMK A01 T02700203  RH  067%=      5-min Rain = 0
KGO1 232221Z 14028KT 27/20 A298 RMK A01 T02700203  RH  067%=      5-min Rain = 0
KGO1 232222Z 14025G31KT 27/20 A2979 RMK A01 T02690203  RH  067%=      5-min Rain = 0
KGO1 232223Z 15031KT 27/20 A2979 RMK A01 T02680202  RH  067%=      5-min Rain = 0
KGO1 232224Z 15026KT 27/20 A2979 RMK A01 T02680202  RH  067%=      5-min Rain = 0
KGO1 232225Z 14022G31KT 27/21 A2979 RMK A01 T02710205  RH  067%=      5-min Rain = 0
KGO1 232226Z 14030G37KT 27/20 A2979 RMK A01 T02740203  RH  065%=      5-min Rain = 0
KGO1 232227Z 14029G38KT 27/20 A2979 RMK A01 T02730202  RH  065%=      5-min Rain = 0
KGO1 232228Z 14034G42KT 27/20 A2979 RMK A01 T02720202  RH  066%=      5-min Rain = 0
KGO1 232229Z 15029G34KT 27/20 A2979 RMK A01 T02710202  RH  066%=      5-min Rain = 0
KGO1 232230Z 14026KT 27/20 A2979 RMK A01 T02710203  RH  066%=      5-min Rain = 0
KGO1 232231Z 15027G33KT 27/20 A2979 RMK A01 T02720203  RH  066%=      5-min Rain = 0
KGO1 232232Z 15027G36KT 27/20 A2979 RMK A01 T02720204  RH  066%=      5-min Rain = 0
KGO1 232233Z 15026G35KT 27/20 A2979 RMK A01 T02720203  RH  066%=      5-min Rain = 0
KGO1 232234Z 16032G40KT 27/20 A2979 RMK A01 T02720204  RH  066%=      5-min Rain = 0
KGO1 232235Z 15028G38KT 27/20 A2979 RMK A01 T02720202  RH  066%=      5-min Rain = 0
KGO1 232236Z 15032G38KT 27/20 A2979 RMK A01 T02710202  RH  066%=      5-min Rain = 0
KGO1 232237Z 15033KT 27/20 A2979 RMK A01 T02690202  RH  066%=      5-min Rain = 0
KGO1 232238Z 15032G40KT 27/20 A2979 RMK A01 T02680202  RH  067%=      5-min Rain = 0
KGO1 232239Z 15030G35KT 27/20 A2979 RMK A01 T02670202  RH  068%=      5-min Rain = 0
KGO1 232240Z 15035KT 27/20 A2979 RMK A01 T02670203  RH  068%=      5-min Rain = 0
KGO1 232241Z 15030G36KT 27/20 A2979 RMK A01 T02670203  RH  068%=      5-min Rain = 0
KGO1 232242Z 15026KT 27/20 A2979 RMK A01 T02670204  RH  068%=      5-min Rain = 0
KGO1 232243Z 15026G31KT 27/20 A2979 RMK A01 T02680204  RH  068%=      5-min Rain = 0
KGO1 232244Z 16023G28KT 27/20 A2979 RMK A01 T02700204  RH  068%=      5-min Rain = 0
KGO1 232245Z 15023G28KT 27/20 A2979 RMK A01 T02700204  RH  067%=      5-min Rain = 0
KGO1 232246Z 15023G30KT 27/20 A2979 RMK A01 T02700204  RH  067%=      5-min Rain = 0
KGO1 232247Z 15025G32KT 27/20 A2979 RMK A01 T02690204  RH  068%=      5-min Rain = 0
KGO1 232248Z 15030G36KT 27/20 A2979 RMK A01 T02660203  RH  068%=      5-min Rain = 0
KGO1 232249Z 15028G35KT 26/20 A2979 RMK A01 T02630202  RH  069%=      5-min Rain = 0
KGO1 232250Z 15032G37KT 26/20 A2978 RMK A01 T02610201  RH  069%=      5-min Rain = 0
KGO1 232251Z 15026G31KT 26/20 A2979 RMK A01 T02600201  RH  070%=      5-min Rain = 0
KGO1 232252Z 15030G37KT 26/20 A2979 RMK A01 T02590201  RH  070%=      5-min Rain = 0
KGO1 232253Z 15028G35KT 26/20 A2979 RMK A01 T02590201  RH  070%=      5-min Rain = 0
KGO1 232254Z 15024G29KT 26/20 A298 RMK A01 T02580201  RH  071%=      5-min Rain = 0
KGO1 232255Z 15027G34KT 26/20 A298 RMK A01 T02580201  RH  071%=      5-min Rain = 0
KGO1 232256Z 15024KT 26/20 A298 RMK A01 T02570201  RH  071%=      5-min Rain = 0
KGO1 232257Z 15025G31KT 26/20 A298 RMK A01 T02570201  RH  071%=      5-min Rain = 0
KGO1 232258Z 15026G35KT 26/20 A298 RMK A01 T02570201  RH  071%=      5-min Rain = 0
KGO1 232259Z 14024G30KT 26/20 A298 RMK A01 T02570201  RH  071%=      5-min Rain = 0
KGO1 232300Z 15028G36KT 26/20 A2979 RMK A01 T02560201  RH  071%=      5-min Rain = 0
KGO1 232301Z 15029G35KT 26/20 A2979 RMK A01 T02560200  RH  071%=      5-min Rain = 0
KGO1 232302Z 15024G29KT 26/20 A2979 RMK A01 T02560201  RH  072%=      5-min Rain = 0
KGO1 232303Z 15023G29KT 26/20 A2979 RMK A01 T02550200  RH  072%=      5-min Rain = 0
KGO1 232304Z 15026G35KT 26/20 A2979 RMK A01 T02550201  RH  072%=      5-min Rain = 0
KGO1 232305Z 16030G37KT 26/20 A298 RMK A01 T02550200  RH  072%=      5-min Rain = 0
KGO1 232306Z 15030G36KT 26/20 A298 RMK A01 T02550199  RH  071%=      5-min Rain = 0
KGO1 232307Z 15027G34KT 26/20 A298 RMK A01 T02550200  RH  071%=      5-min Rain = 0
KGO1 232308Z 15027G34KT 26/20 A298 RMK A01 T02550200  RH  071%=      5-min Rain = 0
KGO1 232309Z 15027KT 26/20 A298 RMK A01 T02560200  RH  071%=      5-min Rain = 0
KGO1 232310Z 16023G28KT 26/20 A298 RMK A01 T02550199  RH  071%=      5-min Rain = 0
KGO1 232311Z 15024KT 26/20 A298 RMK A01 T02550200  RH  071%=      5-min Rain = 0
KGO1 232312Z 15023KT 26/20 A298 RMK A01 T02550200  RH  072%=      5-min Rain = 0
KGO1 232313Z 15023KT 26/20 A298 RMK A01 T02550201  RH  072%=      5-min Rain = 0
KGO1 232314Z 16025KT 26/20 A298 RMK A01 T02550201  RH  072%=      5-min Rain = 0
KGO1 232315Z 16028KT 26/20 A2981 RMK A01 T02550200  RH  072%=      5-min Rain = 0
KGO1 232316Z 15023G28KT 26/20 A2981 RMK A01 T02550200  RH  072%=      5-min Rain = 0
KGO1 232317Z 16024G29KT 25/20 A298 RMK A01 T02540199  RH  071%=      5-min Rain = 0
KGO1 232318Z 16026G31KT 25/20 A298 RMK A01 T02540199  RH  071%=      5-min Rain = 0
KGO1 232319Z 16024G29KT 25/20 A2981 RMK A01 T02540199  RH  071%=      5-min Rain = 0
KGO1 232320Z 15027G32KT 25/20 A298 RMK A01 T02540199  RH  072%=      5-min Rain = 0
KGO1 232321Z 15023G30KT 25/20 A298 RMK A01 T02540199  RH  072%=      5-min Rain = 0
KGO1 232322Z 16024G30KT 25/20 A2981 RMK A01 T02540199  RH  072%=      5-min Rain = 0
KGO1 232323Z 16025G31KT 25/20 A2981 RMK A01 T02540200  RH  072%=      5-min Rain = 0
KGO1 232324Z 16026KT 25/20 A2981 RMK A01 T02540199  RH  072%=      5-min Rain = 0
KGO1 232325Z 16024G30KT 25/20 A2981 RMK A01 T02540199  RH  072%=      5-min Rain = 0
KGO1 232326Z 15026G36KT 25/20 A2981 RMK A01 T02540198  RH  071%=      5-min Rain = 0
KGO1 232327Z 15026G32KT 25/20 A2981 RMK A01 T02540198  RH  071%=      5-min Rain = 0
KGO1 232328Z 15018KT 25/20 A2981 RMK A01 T02540198  RH  071%=      5-min Rain = 0
KGO1 232329Z 15024G31KT 25/20 A2981 RMK A01 T02540198  RH  071%=      5-min Rain = 0
KGO1 232330Z 15025KT 25/20 A2981 RMK A01 T02540197  RH  071%=      5-min Rain = 0
KGO1 232331Z 15025G30KT 25/20 A2981 RMK A01 T02540198  RH  071%=      5-min Rain = 0
KGO1 232332Z 15024KT 25/20 A2982 RMK A01 T02540198  RH  071%=      5-min Rain = 0
KGO1 232333Z 16025KT 25/20 A2982 RMK A01 T02540199  RH  071%=      5-min Rain = 0
KGO1 232334Z 15022G27KT 25/20 A2982 RMK A01 T02540199  RH  071%=      5-min Rain = 0
KGO1 232335Z 15021KT 25/20 A2982 RMK A01 T02540199  RH  072%=      5-min Rain = 0
KGO1 232336Z 16024G31KT 25/20 A2982 RMK A01 T02540199  RH  072%=      5-min Rain = 0
KGO1 232337Z 16025KT 25/20 A2982 RMK A01 T02540199  RH  072%=      5-min Rain = 0
KGO1 232338Z 15023G30KT 25/20 A2982 RMK A01 T02540199  RH  072%=      5-min Rain = 0
KGO1 232339Z 15017KT 25/20 A2982 RMK A01 T02530199  RH  072%=      5-min Rain = 0
KGO1 232340Z 15018G24KT 25/20 A2982 RMK A01 T02530199  RH  072%=      5-min Rain = 0
KGO1 232341Z 15023KT 25/20 A2982 RMK A01 T02530199  RH  072%=      5-min Rain = 0
KGO1 232342Z 15019G26KT 25/20 A2981 RMK A01 T02520199  RH  072%=      5-min Rain = 0
KGO1 232343Z 15025KT 25/20 A2981 RMK A01 T02530199  RH  072%=      5-min Rain = 0
KGO1 232344Z 15026G31KT 25/20 A2981 RMK A01 T02520198  RH  072%=      5-min Rain = 0
KGO1 232345Z 15028G34KT 25/20 A2981 RMK A01 T02520198  RH  072%=      5-min Rain = 0
KGO1 232346Z 15021G30KT 25/20 A2981 RMK A01 T02530198  RH  072%=      5-min Rain = 0
KGO1 232347Z 15023G28KT 25/20 A2981 RMK A01 T02530198  RH  072%=      5-min Rain = 0
KGO1 232348Z 15021G28KT 25/20 A2981 RMK A01 T02540199  RH  072%=      5-min Rain = 0
KGO1 232349Z 15024KT 25/20 A2981 RMK A01 T02540198  RH  071%=      5-min Rain = 0
KGO1 232350Z 15022KT 25/20 A2981 RMK A01 T02540199  RH  071%=      5-min Rain = 0
KGO1 232351Z 15024KT 25/20 A2981 RMK A01 T02540199  RH  071%=      5-min Rain = 0
KGO1 232352Z 15022KT 25/20 A2982 RMK A01 T02540199  RH  071%=      5-min Rain = 0
KGO1 232353Z 16022G27KT 25/20 A2982 RMK A01 T02540199  RH  071%=      5-min Rain = 0
KGO1 232354Z 16021G26KT 26/20 A2982 RMK A01 T02550199  RH  071%=      5-min Rain = 0
KGO1 232355Z 16023KT 26/20 A2982 RMK A01 T02550199  RH  071%=      5-min Rain = 0
KGO1 232356Z 16026KT 26/20 A2982 RMK A01 T02550199  RH  071%=      5-min Rain = 0
KGO1 232357Z 16021G27KT 25/20 A2982 RMK A01 T02540199  RH  071%=      5-min Rain = 0
KGO1 232358Z 15020G25KT 25/20 A2982 RMK A01 T02540199  RH  072%=      5-min Rain = 0
KGO1 232359Z 16021G26KT 25/20 A2982 RMK A01 T02530199  RH  072%=      5-min Rain = 0
KGO1 240000Z 15018KT 25/20 A2982 RMK A01 T02530199  RH  072%=      5-min Rain = 0
KGO1 240001Z 15020KT 25/20 A2982 RMK A01 T02530200  RH  073%=      5-min Rain = 0
KGO1 240002Z 15020G26KT 25/20 A2982 RMK A01 T02520200  RH  073%=      5-min Rain = 0
KGO1 240003Z 15020G28KT 25/20 A2982 RMK A01 T02520200  RH  073%=      5-min Rain = 0
KGO1 240004Z 16022G29KT 25/20 A2982 RMK A01 T02510200  RH  073%=      5-min Rain = 0
KGO1 240005Z 16021KT 25/20 A2982 RMK A01 T02510199  RH  073%=      5-min Rain = 0
KGO1 240006Z 16023KT 25/20 A2982 RMK A01 T02510200  RH  073%=      5-min Rain = 0
KGO1 240007Z 15022KT 25/20 A2982 RMK A01 T02510200  RH  073%=      5-min Rain = 0
KGO1 240008Z 15024KT 25/20 A2982 RMK A01 T02500200  RH  074%=      5-min Rain = 0
KGO1 240009Z 16021G26KT 25/20 A2982 RMK A01 T02500200  RH  074%=      5-min Rain = 0
KGO1 240010Z 15021G27KT 25/20 A2981 RMK A01 T02490200  RH  074%=      5-min Rain = 0
KGO1 240011Z 16023KT 25/20 A2981 RMK A01 T02490200  RH  074%=      5-min Rain = 0
KGO1 240012Z 16022KT 25/20 A2982 RMK A01 T02490200  RH  074%=      5-min Rain = 0
KGO1 240013Z 15022KT 25/20 A2982 RMK A01 T02490200  RH  074%=      5-min Rain = 0
KGO1 240014Z 16025G33KT 25/20 A2982 RMK A01 T02490201  RH  074%=      5-min Rain = 0
KGO1 240015Z 15023G30KT 25/20 A2982 RMK A01 T02490200  RH  074%=      5-min Rain = 0
KGO1 240016Z 15027G32KT 25/20 A2982 RMK A01 T02490200  RH  074%=      5-min Rain = 0
KGO1 240017Z 15023KT 25/20 A2982 RMK A01 T02490200  RH  074%=      5-min Rain = 0
KGO1 240018Z 16021KT 25/20 A2983 RMK A01 T02490201  RH  075%=      5-min Rain = 0
KGO1 240019Z 16019KT 25/20 A2983 RMK A01 T02490201  RH  075%=      5-min Rain = 0
KGO1 240020Z 16017KT 25/20 A2983 RMK A01 T02480201  RH  075%=      5-min Rain = 0
KGO1 240021Z 16015KT 25/20 A2983 RMK A01 T02480201  RH  075%=      5-min Rain = 0
KGO1 240022Z 16020G25KT 25/20 A2983 RMK A01 T02480202  RH  075%=      5-min Rain = 0
KGO1 240023Z 15017KT 25/20 A2983 RMK A01 T02470202  RH  076%=      5-min Rain = 0
KGO1 240024Z 15015KT 25/20 A2983 RMK A01 T02470202  RH  076%=      5-min Rain = 0
KGO1 240025Z 15015KT 25/20 A2983 RMK A01 T02470202  RH  076%=      5-min Rain = 0
KGO1 240026Z 15019G24KT 25/20 A2983 RMK A01 T02460202  RH  076%=      5-min Rain = 0
KGO1 240027Z 16019G24KT 25/20 A2984 RMK A01 T02460203  RH  077%=      5-min Rain = 0
KGO1 240028Z 16020G25KT 25/20 A2984 RMK A01 T02460203  RH  077%=      5-min Rain = 0
KGO1 240029Z 16020KT 25/20 A2984 RMK A01 T02470203  RH  077%=      5-min Rain = 0
KGO1 240030Z 16020KT 25/20 A2985 RMK A01 T02470203  RH  077%=      5-min Rain = 0
KGO1 240031Z 16018KT 25/20 A2985 RMK A01 T02460203  RH  077%=      5-min Rain = 0
KGO1 240032Z 17019KT 25/20 A2985 RMK A01 T02470203  RH  077%=      5-min Rain = 0
KGO1 240033Z 16020G25KT 25/20 A2985 RMK A01 T02470203  RH  077%=      5-min Rain = 0
KGO1 240034Z 16020KT 25/20 A2984 RMK A01 T02470203  RH  077%=      5-min Rain = 0
KGO1 240035Z 16019KT 25/20 A2984 RMK A01 T02470203  RH  077%=      5-min Rain = 0
KGO1 240036Z 16017KT 25/20 A2984 RMK A01 T02470203  RH  077%=      5-min Rain = 0
KGO1 240037Z 15019KT 25/20 A2984 RMK A01 T02460203  RH  077%=      5-min Rain = 0
KGO1 240038Z 16022G27KT 25/20 A2984 RMK A01 T02460202  RH  077%=      5-min Rain = 0
KGO1 240039Z 15021G26KT 25/20 A2984 RMK A01 T02460202  RH  077%=      5-min Rain = 0
KGO1 240040Z 16021G27KT 25/20 A2984 RMK A01 T02460202  RH  077%=      5-min Rain = 0
KGO1 240041Z 16021G26KT 25/20 A2984 RMK A01 T02460202  RH  077%=      5-min Rain = 0
KGO1 240042Z 17022KT 25/20 A2984 RMK A01 T02460202  RH  077%=      5-min Rain = 0
KGO1 240043Z 16020G26KT 25/20 A2985 RMK A01 T02460202  RH  077%=      5-min Rain = 0
KGO1 240044Z 16023G28KT 25/20 A2985 RMK A01 T02460202  RH  077%=      5-min Rain = 0
KGO1 240045Z 16018KT 25/20 A2985 RMK A01 T02460202  RH  077%=      5-min Rain = 0
KGO1 240046Z 16017KT 25/20 A2985 RMK A01 T02460202  RH  077%=      5-min Rain = 0
KGO1 240047Z 16017KT 25/20 A2985 RMK A01 T02460202  RH  077%=      5-min Rain = 0
KGO1 240048Z 16018KT 25/20 A2984 RMK A01 T02460202  RH  077%=      5-min Rain = 0
KGO1 240049Z 15018G23KT 25/20 A2984 RMK A01 T02460203  RH  077%=      5-min Rain = 0
KGO1 240050Z 15015KT 25/20 A2984 RMK A01 T02460202  RH  077%=      5-min Rain = 0
KGO1 240051Z 15020G26KT 25/20 A2983 RMK A01 T02460203  RH  077%=      5-min Rain = 0
KGO1 240052Z 15020G26KT 25/20 A2983 RMK A01 T02460202  RH  076%=      5-min Rain = 0
KGO1 240053Z 16019KT 25/20 A2984 RMK A01 T02460202  RH  076%=      5-min Rain = 0
KGO1 240054Z 15013KT 25/20 A2984 RMK A01 T02460202  RH  076%=      5-min Rain = 0
KGO1 240055Z 15017KT 25/20 A2984 RMK A01 T02470203  RH  077%=      5-min Rain = 0
KGO1 240056Z 15016G21KT 25/20 A2985 RMK A01 T02470203  RH  076%=      5-min Rain = 0
KGO1 240057Z 15016G22KT 25/20 A2984 RMK A01 T02470203  RH  076%=      5-min Rain = 0
KGO1 240058Z 16020G26KT 25/20 A2985 RMK A01 T02470203  RH  076%=      5-min Rain = 0
KGO1 240059Z 16018KT 25/20 A2985 RMK A01 T02480203  RH  076%=      5-min Rain = 0
KGO1 240100Z 16015KT 25/20 A2985 RMK A01 T02480203  RH  076%=      5-min Rain = 0
KGO1 240101Z 15015G21KT 25/20 A2985 RMK A01 T02490204  RH  076%=      5-min Rain = 0
KGO1 240102Z 14016G22KT 25/20 A2984 RMK A01 T02490203  RH  076%=      5-min Rain = 0
KGO1 240103Z 16015G20KT 25/20 A2984 RMK A01 T02490203  RH  076%=      5-min Rain = 0
KGO1 240104Z 16018G25KT 25/20 A2986 RMK A01 T02490204  RH  076%=      5-min Rain = 0
KGO1 240105Z 16019KT 25/20 A2985 RMK A01 T02490203  RH  075%=      5-min Rain = 0
KGO1 240106Z 16021KT 25/20 A2985 RMK A01 T02490203  RH  075%=      5-min Rain = 0
KGO1 240107Z 16017KT 25/20 A2985 RMK A01 T02490203  RH  076%=      5-min Rain = 0
KGO1 240108Z 15016G22KT 25/20 A2984 RMK A01 T02490203  RH  076%=      5-min Rain = 0
KGO1 240109Z 16015KT 25/20 A2985 RMK A01 T02480203  RH  076%=      5-min Rain = 0
KGO1 240110Z 17020G26KT 25/20 A2987 RMK A01 T02480203  RH  076%=      5-min Rain = 0
KGO1 240111Z 16019KT 25/20 A2987 RMK A01 T02480203  RH  076%=      5-min Rain = 0
KGO1 240112Z 15019KT 25/20 A2986 RMK A01 T02480203  RH  076%=      5-min Rain = 0
KGO1 240113Z 16021G26KT 25/20 A2985 RMK A01 T02470202  RH  076%=      5-min Rain = 0
KGO1 240114Z 16026KT 25/20 A2985 RMK A01 T02470201  RH  076%=      5-min Rain = 0
KGO1 240115Z 16024KT 25/20 A2986 RMK A01 T02470201  RH  076%=      5-min Rain = 0
KGO1 240116Z 16022KT 25/20 A2986 RMK A01 T02470201  RH  076%=      5-min Rain = 0
KGO1 240117Z 16022G27KT 25/20 A2985 RMK A01 T02470201  RH  076%=      5-min Rain = 0
KGO1 240118Z 16020G25KT 25/20 A2985 RMK A01 T02470201  RH  076%=      5-min Rain = 0
KGO1 240119Z 15019G24KT 25/20 A2985 RMK A01 T02470201  RH  076%=      5-min Rain = 0
KGO1 240120Z 16019KT 25/20 A2985 RMK A01 T02460201  RH  076%=      5-min Rain = 0
KGO1 240121Z 17018G23KT 25/20 A2986 RMK A01 T02460201  RH  076%=      5-min Rain = 0
KGO1 240122Z 17024KT 25/20 A2986 RMK A01 T02460201  RH  076%=      5-min Rain = 0
KGO1 240123Z 16021KT 25/20 A2985 RMK A01 T02460201  RH  076%=      5-min Rain = 0
KGO1 240124Z 16019KT 25/20 A2986 RMK A01 T02460201  RH  076%=      5-min Rain = 0
KGO1 240125Z 16019KT 25/20 A2986 RMK A01 T02450201  RH  076%=      5-min Rain = 0
KGO1 240126Z 17018KT 25/20 A2987 RMK A01 T02450201  RH  076%=      5-min Rain = 0
KGO1 240127Z 17017G22KT 25/20 A2987 RMK A01 T02450200  RH  076%=      5-min Rain = 0
KGO1 240128Z 17020KT 25/20 A2987 RMK A01 T02450200  RH  076%=      5-min Rain = 0
KGO1 240129Z 17019KT 24/20 A2987 RMK A01 T02440200  RH  076%=      5-min Rain = 0
KGO1 240130Z 17019KT 25/20 A2987 RMK A01 T02450200  RH  076%=      5-min Rain = 0
KGO1 240131Z 17019KT 25/20 A2987 RMK A01 T02450200  RH  076%=      5-min Rain = 0
KGO1 240132Z 17019KT 25/20 A2986 RMK A01 T02450200  RH  076%=      5-min Rain = 0
KGO1 240133Z 17020KT 25/20 A2986 RMK A01 T02450199  RH  076%=      5-min Rain = 0
KGO1 240134Z 16015KT 25/20 A2987 RMK A01 T02450199  RH  076%=      5-min Rain = 0
KGO1 240135Z 17015KT 24/20 A2988 RMK A01 T02440200  RH  076%=      5-min Rain = 0
KGO1 240136Z 17018KT 24/20 A2989 RMK A01 T02440200  RH  076%=      5-min Rain = 0
KGO1 240137Z 17019G26KT 24/20 A2989 RMK A01 T02440200  RH  076%=      5-min Rain = 0
KGO1 240138Z 17021KT 24/20 A2989 RMK A01 T02440199  RH  076%=      5-min Rain = 0
KGO1 240139Z 17021KT 24/20 A2989 RMK A01 T02440199  RH  076%=      5-min Rain = 0
KGO1 240140Z 17016KT 24/20 A2989 RMK A01 T02440199  RH  076%=      5-min Rain = 0
KGO1 240141Z 18017KT 24/20 A299 RMK A01 T02440199  RH  076%=      5-min Rain = 0
KGO1 240142Z 18016KT 24/20 A299 RMK A01 T02440199  RH  076%=      5-min Rain = 0
KGO1 240143Z 18014KT 25/20 A299 RMK A01 T02450200  RH  076%=      5-min Rain = 0
KGO1 240144Z 18014KT 24/20 A299 RMK A01 T02440199  RH  076%=      5-min Rain = 0
KGO1 240145Z 17016KT 24/20 A2989 RMK A01 T02440199  RH  076%=      5-min Rain = 0
KGO1 240146Z 17016KT 24/20 A2989 RMK A01 T02440198  RH  076%=      5-min Rain = 0
KGO1 240147Z 17014KT 24/20 A2989 RMK A01 T02440198  RH  076%=      5-min Rain = 0
KGO1 240148Z 17014KT 24/20 A2989 RMK A01 T02440198  RH  076%=      5-min Rain = 0
KGO1 240149Z 17015G20KT 24/20 A299 RMK A01 T02430198  RH  076%=      5-min Rain = 0
KGO1 240150Z 16018KT 24/20 A299 RMK A01 T02430198  RH  076%=      5-min Rain = 0
KGO1 240151Z 16018KT 24/20 A2989 RMK A01 T02430197  RH  076%=      5-min Rain = 0
KGO1 240152Z 15014G20KT 24/20 A2988 RMK A01 T02430198  RH  076%=      5-min Rain = 0
KGO1 240153Z 15016KT 24/20 A2988 RMK A01 T02430197  RH  076%=      5-min Rain = 0
KGO1 240154Z 16017KT 24/20 A2989 RMK A01 T02430197  RH  076%=      5-min Rain = 0
KGO1 240155Z 15016KT 24/20 A2989 RMK A01 T02430197  RH  076%=      5-min Rain = 0
KGO1 240156Z 15016KT 24/20 A2988 RMK A01 T02420197  RH  076%=      5-min Rain = 0
KGO1 240157Z 15018KT 24/20 A2988 RMK A01 T02420197  RH  076%=      5-min Rain = 0
KGO1 240158Z 15017KT 24/20 A2988 RMK A01 T02420197  RH  076%=      5-min Rain = 0
KGO1 240159Z 15018KT 24/20 A2987 RMK A01 T02420197  RH  076%=      5-min Rain = 0
KGO1 240200Z 15017KT 24/20 A2988 RMK A01 T02420197  RH  076%=      5-min Rain = 0
KGO1 240201Z 15017G24KT 24/20 A2988 RMK A01 T02410197  RH  076%=      5-min Rain = 0
KGO1 240202Z 15019G24KT 24/20 A2988 RMK A01 T02410196  RH  076%=      5-min Rain = 0
KGO1 240203Z 16018KT 24/20 A2988 RMK A01 T02410196  RH  076%=      5-min Rain = 0
KGO1 240204Z 16018G23KT 24/20 A2988 RMK A01 T02410195  RH  076%=      5-min Rain = 0
KGO1 240205Z 16020KT 24/20 A2988 RMK A01 T02420196  RH  075%=      5-min Rain = 0
KGO1 240206Z 15020KT 24/20 A2988 RMK A01 T02420195  RH  075%=      5-min Rain = 0
KGO1 240207Z 15018KT 24/20 A2988 RMK A01 T02420196  RH  075%=      5-min Rain = 0
KGO1 240208Z 15020KT 24/20 A2988 RMK A01 T02420196  RH  075%=      5-min Rain = 0
KGO1 240209Z 16019KT 24/20 A2988 RMK A01 T02420195  RH  075%=      5-min Rain = 0
KGO1 240210Z 16020KT 24/20 A2989 RMK A01 T02420195  RH  075%=      5-min Rain = 0
KGO1 240211Z 16018KT 24/20 A2989 RMK A01 T02420195  RH  075%=      5-min Rain = 0
KGO1 240212Z 16020KT 24/20 A299 RMK A01 T02420195  RH  075%=      5-min Rain = 0
KGO1 240213Z 16021KT 24/20 A299 RMK A01 T02420195  RH  075%=      5-min Rain = 0
KGO1 240214Z 16018KT 24/19 A299 RMK A01 T02420194  RH  075%=      5-min Rain = 0
KGO1 240215Z 16017KT 24/20 A299 RMK A01 T02420195  RH  075%=      5-min Rain = 0
KGO1 240216Z 16018KT 24/19 A2989 RMK A01 T02420194  RH  075%=      5-min Rain = 0
KGO1 240217Z 15019G24KT 24/19 A2989 RMK A01 T02420194  RH  075%=      5-min Rain = 0
KGO1 240218Z 16018G23KT 24/19 A299 RMK A01 T02420194  RH  075%=      5-min Rain = 0
KGO1 240219Z 16018KT 24/19 A299 RMK A01 T02420194  RH  075%=      5-min Rain = 0
KGO1 240220Z 16016KT 24/20 A2991 RMK A01 T02420195  RH  075%=      5-min Rain = 0
KGO1 240221Z 16016KT 24/20 A2991 RMK A01 T02420195  RH  075%=      5-min Rain = 0
KGO1 240222Z 16014KT 24/20 A2991 RMK A01 T02410195  RH  075%=      5-min Rain = 0
KGO1 240223Z 16012KT 24/20 A2991 RMK A01 T02410195  RH  075%=      5-min Rain = 0
KGO1 240224Z 16011KT 24/20 A299 RMK A01 T02410195  RH  075%=      5-min Rain = 0
KGO1 240225Z 15016KT 24/20 A299 RMK A01 T02400195  RH  076%=      5-min Rain = 0
KGO1 240226Z 15015KT 24/20 A2991 RMK A01 T02400195  RH  076%=      5-min Rain = 0
KGO1 240227Z 15017KT 24/19 A2991 RMK A01 T02400194  RH  076%=      5-min Rain = 0
KGO1 240228Z 15017KT 24/19 A2991 RMK A01 T02400194  RH  076%=      5-min Rain = 0
KGO1 240229Z 16015KT 24/19 A2992 RMK A01 T02400194  RH  076%=      5-min Rain = 0
KGO1 240230Z 16015KT 24/19 A2992 RMK A01 T02400194  RH  076%=      5-min Rain = 0
KGO1 240231Z 17014G19KT 24/19 A2992 RMK A01 T02400194  RH  076%=      5-min Rain = 0
KGO1 240232Z 17014KT 24/19 A2992 RMK A01 T02400194  RH  076%=      5-min Rain = 0
KGO1 240233Z 17013KT 24/19 A2992 RMK A01 T02400194  RH  076%=      5-min Rain = 0
KGO1 240234Z 17013KT 24/20 A2992 RMK A01 T02400195  RH  076%=      5-min Rain = 0
KGO1 240235Z 17013KT 24/20 A2992 RMK A01 T02400195  RH  076%=      5-min Rain = 0
KGO1 240236Z 17012KT 24/20 A2992 RMK A01 T02400195  RH  076%=      5-min Rain = 0
KGO1 240237Z 17014KT 24/19 A2993 RMK A01 T02400194  RH  076%=      5-min Rain = 0
KGO1 240238Z 16013KT 24/19 A2993 RMK A01 T02400194  RH  076%=      5-min Rain = 0
KGO1 240239Z 16012KT 24/20 A2993 RMK A01 T02390195  RH  076%=      5-min Rain = 0
KGO1 240240Z 17012KT 24/20 A2993 RMK A01 T02390195  RH  076%=      5-min Rain = 0
KGO1 240241Z 16016KT 24/19 A2994 RMK A01 T02380194  RH  076%=      5-min Rain = 0
KGO1 240242Z 16014KT 24/19 A2994 RMK A01 T02380194  RH  076%=      5-min Rain = 0
KGO1 240243Z 17011KT 24/19 A2994 RMK A01 T02390194  RH  076%=      5-min Rain = 0
KGO1 240244Z 18015KT 24/19 A2995 RMK A01 T02390194  RH  076%=      5-min Rain = 0
KGO1 240245Z 18013KT 24/19 A2995 RMK A01 T02390194  RH  076%=      5-min Rain = 0
KGO1 240246Z 18011KT 24/19 A2995 RMK A01 T02400194  RH  076%=      5-min Rain = 0
KGO1 240247Z 18013KT 24/19 A2995 RMK A01 T02400194  RH  076%=      5-min Rain = 0
KGO1 240248Z 18012KT 24/19 A2995 RMK A01 T02400194  RH  076%=      5-min Rain = 0
KGO1 240249Z 19010KT 24/19 A2996 RMK A01 T02400194  RH  076%=      5-min Rain = 0
KGO1 240250Z 18010KT 24/20 A2996 RMK A01 T02390195  RH  076%=      5-min Rain = 0
KGO1 240251Z 18009KT 24/19 A2996 RMK A01 T02390194  RH  076%=      5-min Rain = 0
KGO1 240252Z 18009KT 24/19 A2996 RMK A01 T02390194  RH  076%=      5-min Rain = 0
KGO1 240253Z 19008KT 24/20 A2996 RMK A01 T02390195  RH  076%=      5-min Rain = 0
KGO1 240254Z 20009KT 24/19 A2997 RMK A01 T02390194  RH  076%=      5-min Rain = 0
KGO1 240255Z 20009KT 24/19 A2997 RMK A01 T02390194  RH  076%=      5-min Rain = 0
KGO1 240256Z 20009KT 24/19 A2997 RMK A01 T02390194  RH  076%=      5-min Rain = 0
KGO1 240257Z 20007KT 24/19 A2997 RMK A01 T02390194  RH  076%=      5-min Rain = 0
KGO1 240258Z 21006KT 24/20 A2997 RMK A01 T02390195  RH  076%=      5-min Rain = 0
KGO1 240259Z 20008KT 24/20 A2997 RMK A01 T02390195  RH  076%=      5-min Rain = 0
KGO1 240300Z 21008KT 24/19 A2997 RMK A01 T02390194  RH  076%=      5-min Rain = 0
KGO1 240301Z 22007KT 24/19 A2997 RMK A01 T02390194  RH  076%=      5-min Rain = 0
KGO1 240302Z 21008KT 24/20 A2998 RMK A01 T02390195  RH  076%=      5-min Rain = 0
KGO1 240303Z 20007KT 24/20 A2998 RMK A01 T02380195  RH  077%=      5-min Rain = 0
KGO1 240304Z 20006KT 24/20 A2998 RMK A01 T02380197  RH  078%=      5-min Rain = 0
KGO1 240305Z 21006KT 24/20 A2997 RMK A01 T02370198  RH  079%=      5-min Rain = 0
KGO1 240306Z 20006KT 24/20 A2997 RMK A01 T02360198  RH  079%=      5-min Rain = 0
KGO1 240307Z 22006KT 24/20 A2997 RMK A01 T02350198  RH  080%=      5-min Rain = 0
KGO1 240308Z 21006KT 23/20 A2997 RMK A01 T02340198  RH  080%=      5-min Rain = 0
KGO1 240309Z 21007KT 23/20 A2997 RMK A01 T02330197  RH  080%=      5-min Rain = 0
KGO1 240310Z 21008KT 23/20 A2997 RMK A01 T02330197  RH  080%=      5-min Rain = 0
KGO1 240311Z 21008KT 23/20 A2998 RMK A01 T02330198  RH  080%=      5-min Rain = 0
KGO1 240312Z 22006KT 23/20 A2998 RMK A01 T02320200  RH  082%=      5-min Rain = 0
KGO1 240313Z 22006KT 23/20 A2998 RMK A01 T02310200  RH  083%=      5-min Rain = 0
KGO1 240314Z 22006KT 23/20 A2998 RMK A01 T02300200  RH  083%=      5-min Rain = 0
KGO1 240315Z 22008KT 23/20 A2998 RMK A01 T02290200  RH  084%=      5-min Rain = 0
KGO1 240316Z 23008KT 23/20 A2998 RMK A01 T02280198  RH  083%=      5-min Rain = 0
KGO1 240317Z 24007KT 23/20 A2998 RMK A01 T02290200  RH  084%=      5-min Rain = 0
KGO1 240318Z 24006KT 23/20 A2998 RMK A01 T02290201  RH  084%=      5-min Rain = 0
KGO1 240319Z 25006KT 23/20 A2997 RMK A01 T02280201  RH  084%=      5-min Rain = 0
KGO1 240320Z 25004KT 23/20 A2997 RMK A01 T02280201  RH  085%=      5-min Rain = 0
KGO1 240321Z 26004KT 23/20 A2997 RMK A01 T02270201  RH  085%=      5-min Rain = 0
KGO1 240322Z 28003KT 23/20 A2996 RMK A01 T02270201  RH  085%=      5-min Rain = 0
KGO1 240323Z 29003KT 23/20 A2996 RMK A01 T02260200  RH  085%=      5-min Rain = 0
KGO1 240324Z 31003KT 23/20 A2996 RMK A01 T02270200  RH  085%=      5-min Rain = 0
KGO1 240325Z 31004KT 23/20 A2995 RMK A01 T02260201  RH  086%=      5-min Rain = 0
KGO1 240326Z 29003KT 23/20 A2996 RMK A01 T02250202  RH  087%=      5-min Rain = 0
KGO1 240327Z 28003KT 22/20 A2996 RMK A01 T02230202  RH  088%=      5-min Rain = 0
KGO1 240328Z 28003KT 22/20 A2996 RMK A01 T02220202  RH  088%=      5-min Rain = 0
KGO1 240329Z 28003KT 22/20 A2996 RMK A01 T02220202  RH  089%=      5-min Rain = 0
KGO1 240330Z 27003KT 22/20 A2996 RMK A01 T02210203  RH  089%=      5-min Rain = 0
KGO1 240331Z 26003KT 22/20 A2997 RMK A01 T02200204  RH  090%=      5-min Rain = 0
KGO1 240332Z 27003KT 22/20 A2997 RMK A01 T02200204  RH  091%=      5-min Rain = 0
KGO1 240333Z 27003KT 22/20 A2997 RMK A01 T02200203  RH  090%=      5-min Rain = 0
KGO1 240334Z 26003KT 22/20 A2997 RMK A01 T02200203  RH  090%=      5-min Rain = 0
KGO1 240335Z 23003KT 22/20 A2997 RMK A01 T02210201  RH  089%=      5-min Rain = 0
KGO1 240336Z 20004KT 22/20 A2998 RMK A01 T02220202  RH  088%=      5-min Rain = 0
KGO1 240337Z 19005KT 22/20 A2998 RMK A01 T02220203  RH  089%=      5-min Rain = 0
KGO1 240338Z 18006KT 22/20 A2998 RMK A01 T02220201  RH  088%=      5-min Rain = 0
KGO1 240339Z 17006KT 22/20 A2998 RMK A01 T02220202  RH  089%=      5-min Rain = 0
KGO1 240340Z 17008KT 22/20 A2998 RMK A01 T02220201  RH  088%=      5-min Rain = 0
KGO1 240341Z 17009KT 22/20 A2998 RMK A01 T02220202  RH  088%=      5-min Rain = 0
KGO1 240342Z 16010KT 22/20 A2998 RMK A01 T02230201  RH  087%=      5-min Rain = 0
KGO1 240343Z 15010KT 22/20 A2998 RMK A01 T02240202  RH  087%=      5-min Rain = 0
KGO1 240344Z 15012KT 22/20 A2998 RMK A01 T02240204  RH  088%=      5-min Rain = 0
KGO1 240345Z 15015KT 22/20 A2998 RMK A01 T02220200  RH  087%=      5-min Rain = 0
KGO1 240346Z 15017G22KT 22/19 A2998 RMK A01 T02210189  RH  082%=      5-min Rain = 0.01
KGO1 240347Z 16014KT 22/16 A2998 RMK A01 T02230163  RH  069%=      5-min Rain = 0
KGO1 240348Z 17012KT 22/18 A2998 RMK A01 T02240175  RH  074%=      5-min Rain = 0
KGO1 240349Z 17014KT 22/18 A2998 RMK A01 T02210182  RH  079%=      5-min Rain = 0
KGO1 240350Z 18015KT 22/18 A2998 RMK A01 T02210183  RH  079%=      5-min Rain = 0
KGO1 240351Z 18015KT 23/19 A2999 RMK A01 T02250190  RH  081%=      5-min Rain = 0
KGO1 240352Z 18014KT 23/19 A2999 RMK A01 T02250193  RH  082%=      5-min Rain = 0
KGO1 240353Z 19013KT 23/20 A2999 RMK A01 T02250196  RH  084%=      5-min Rain = 0
KGO1 240354Z 19013KT 22/20 A2999 RMK A01 T02240197  RH  084%=      5-min Rain = 0
KGO1 240355Z 18010KT 22/20 A2999 RMK A01 T02240197  RH  085%=      5-min Rain = 0
KGO1 240356Z 18009KT 22/20 A2999 RMK A01 T02240199  RH  086%=      5-min Rain = 0
KGO1 240357Z 19009KT 22/20 A2999 RMK A01 T02220199  RH  087%=      5-min Rain = 0
KGO1 240358Z 19009KT 22/20 A30 RMK A01 T02200200  RH  088%=      5-min Rain = 0
KGO1 240359Z 19009KT 22/20 A30 RMK A01 T02200201  RH  089%=      5-min Rain = 0
KGO1 240400Z 20008KT 22/20 A30 RMK A01 T02200203  RH  090%=      5-min Rain = 0
KGO1 240401Z 20009KT 22/20 A3001 RMK A01 T02190203  RH  091%=      5-min Rain = 0.01
KGO1 240402Z 20009KT 22/20 A3001 RMK A01 T02180204  RH  092%=      5-min Rain = 0
KGO1 240403Z 20008KT 22/20 A3001 RMK A01 T02170204  RH  092%=      5-min Rain = 0
KGO1 240404Z 19008KT 22/20 A3001 RMK A01 T02170204  RH  092%=      5-min Rain = 0.01
KGO1 240405Z 20008KT 22/20 A3001 RMK A01 T02170204  RH  092%=      5-min Rain = 0
KGO1 240406Z 19009KT 22/20 A3001 RMK A01 T02170204  RH  092%=      5-min Rain = 0.02
KGO1 240407Z 19006KT 22/21 A3001 RMK A01 T02180205  RH  092%=      5-min Rain = 0
KGO1 240408Z 20007KT 22/21 A3001 RMK A01 T02170205  RH  093%=      5-min Rain = 0.01
KGO1 240409Z 19006KT 22/20 A3001 RMK A01 T02160203  RH  092%=      5-min Rain = 0
KGO1 240410Z 18007KT 22/20 A3001 RMK A01 T02160204  RH  093%=      5-min Rain = 0
KGO1 240411Z 18009KT 22/21 A3002 RMK A01 T02160205  RH  093%=      5-min Rain = 0
KGO1 240412Z 18009KT 22/21 A3002 RMK A01 T02150205  RH  094%=      5-min Rain = 0
KGO1 240413Z 18008KT 22/21 A3001 RMK A01 T02150206  RH  094%=      5-min Rain = 0.01
KGO1 240414Z 18008KT 22/21 A3001 RMK A01 T02150206  RH  094%=      5-min Rain = 0
KGO1 240415Z 19007KT 21/20 A30 RMK A01 T02140199  RH  091%=      5-min Rain = 0.01
KGO1 240416Z 18005KT 22/18 A2999 RMK A01 T02150183  RH  082%=      5-min Rain = 0.01
KGO1 240417Z 13001KT 22/19 A2998 RMK A01 T02180190  RH  084%=      5-min Rain = 0.01
KGO1 240418Z 06000KT 22/19 A2997 RMK A01 T02180191  RH  085%=      5-min Rain = 0
KGO1 240419Z 08001KT 22/19 A2998 RMK A01 T02170191  RH  085%=      5-min Rain = 0
KGO1 240420Z 12001KT 22/19 A2998 RMK A01 T02170194  RH  087%=      5-min Rain = 0
KGO1 240421Z 14003KT 22/20 A2999 RMK A01 T02150196  RH  089%=      5-min Rain = 0
KGO1 240422Z 16003KT 21/20 A2999 RMK A01 T02140196  RH  090%=      5-min Rain = 0
KGO1 240423Z 22004KT 21/20 A30 RMK A01 T02120195  RH  090%=      5-min Rain = 0
KGO1 240424Z 25005KT 21/20 A2999 RMK A01 T02120195  RH  090%=      5-min Rain = 0
KGO1 240425Z 29004KT 21/20 A2999 RMK A01 T02110196  RH  091%=      5-min Rain = 0
KGO1 240426Z 30002KT 21/20 A2999 RMK A01 T02110200  RH  093%=      5-min Rain = 0.01
KGO1 240427Z 34001KT 21/20 A2998 RMK A01 T02100200  RH  094%=      5-min Rain = 0
KGO1 240428Z 00001KT 21/20 A2998 RMK A01 T02110200  RH  093%=      5-min Rain = 0
KGO1 240429Z 00000KT 21/20 A2998 RMK A01 T02110199  RH  093%=      5-min Rain = 0
KGO1 240430Z 00000KT 21/20 A2998 RMK A01 T02100197  RH  092%=      5-min Rain = 0
KGO1 240431Z 00000KT 21/20 A2998 RMK A01 T02100196  RH  092%=      5-min Rain = 0
KGO1 240432Z 13002KT 21/20 A2998 RMK A01 T02110197  RH  092%=      5-min Rain = 0
KGO1 240433Z 15004KT 21/20 A2999 RMK A01 T02120198  RH  092%=      5-min Rain = 0
KGO1 240434Z 15004KT 21/20 A2999 RMK A01 T02100198  RH  092%=      5-min Rain = 0
KGO1 240435Z 15006KT 21/20 A30 RMK A01 T02090199  RH  094%=      5-min Rain = 0
KGO1 240436Z 16008KT 21/19 A30 RMK A01 T02080194  RH  092%=      5-min Rain = 0
KGO1 240437Z 17008KT 21/19 A2999 RMK A01 T02070188  RH  089%=      5-min Rain = 0
KGO1 240438Z 16006KT 21/19 A2999 RMK A01 T02060186  RH  088%=      5-min Rain = 0
KGO1 240439Z 15005KT 21/19 A2998 RMK A01 T02060185  RH  088%=      5-min Rain = 0
KGO1 240440Z 14005KT 21/18 A2997 RMK A01 T02060183  RH  087%=      5-min Rain = 0
KGO1 240441Z 13004KT 21/18 A2997 RMK A01 T02050182  RH  087%=      5-min Rain = 0
KGO1 240442Z 14004KT 20/18 A2997 RMK A01 T02040181  RH  086%=      5-min Rain = 0
KGO1 240443Z 13003KT 20/18 A2997 RMK A01 T02040179  RH  086%=      5-min Rain = 0
KGO1 240444Z 11002KT 20/18 A2996 RMK A01 T02040179  RH  086%=      5-min Rain = 0
KGO1 240445Z 08002KT 20/18 A2996 RMK A01 T02030177  RH  085%=      5-min Rain = 0
KGO1 240446Z 04002KT 20/18 A2996 RMK A01 T02040176  RH  084%=      5-min Rain = 0
KGO1 240447Z 03002KT 20/18 A2996 RMK A01 T02040180  RH  086%=      5-min Rain = 0
KGO1 240448Z 05001KT 20/18 A2996 RMK A01 T02020180  RH  088%=      5-min Rain = 0
KGO1 240449Z 09002KT 20/18 A2997 RMK A01 T02010179  RH  087%=      5-min Rain = 0
KGO1 240450Z 11003KT 20/18 A2997 RMK A01 T02000179  RH  088%=      5-min Rain = 0
KGO1 240451Z 11006KT 20/18 A2997 RMK A01 T02000182  RH  089%=      5-min Rain = 0
KGO1 240452Z 11009KT 20/18 A2997 RMK A01 T01990184  RH  091%=      5-min Rain = 0
KGO1 240453Z 11007KT 20/18 A2997 RMK A01 T01980184  RH  092%=      5-min Rain = 0
KGO1 240454Z 09005KT 20/18 A2997 RMK A01 T01980182  RH  090%=      5-min Rain = 0
KGO1 240455Z 08004KT 20/18 A2997 RMK A01 T01990180  RH  089%=      5-min Rain = 0
KGO1 240456Z 06004KT 20/18 A2996 RMK A01 T02010177  RH  086%=      5-min Rain = 0
KGO1 240457Z 05004KT 20/18 A2996 RMK A01 T02020178  RH  086%=      5-min Rain = 0
KGO1 240458Z 04005KT 20/18 A2996 RMK A01 T02030181  RH  087%=      5-min Rain = 0
KGO1 240459Z 03005KT 20/18 A2996 RMK A01 T02010179  RH  087%=      5-min Rain = 0

Page generated in 0.0707 seconds.